Observation data for Vigo Park on 01/12/2018      Previous  Date  Next       Current Mesonet Observations  Soil Data  Daily Summary Page  Observations in Plain Language
KVP1 120600Z 02003KT M06/M12 A3026 RMK A01 T10571115  RH  064%=      5-min Rain = 0
KVP1 120601Z 02003KT M06/M12 A3026 RMK A01 T10581115  RH  064%=      5-min Rain = 0
KVP1 120602Z 02003KT M06/M12 A3026 RMK A01 T10591117  RH  063%=      5-min Rain = 0
KVP1 120603Z 03004KT M06/M12 A3026 RMK A01 T10601118  RH  063%=      5-min Rain = 0
KVP1 120604Z 03004KT M06/M12 A3026 RMK A01 T10601118  RH  064%=      5-min Rain = 0
KVP1 120605Z 02004KT M06/M12 A3026 RMK A01 T10611118  RH  064%=      5-min Rain = 0
KVP1 120606Z 02003KT M06/M12 A3026 RMK A01 T10601116  RH  064%=      5-min Rain = 0
KVP1 120607Z 02003KT M06/M12 A3026 RMK A01 T10591115  RH  064%=      5-min Rain = 0
KVP1 120608Z 02003KT M06/M12 A3026 RMK A01 T10581116  RH  064%=      5-min Rain = 0
KVP1 120609Z 02002KT M06/M12 A3027 RMK A01 T10591119  RH  063%=      5-min Rain = 0
KVP1 120610Z 02002KT M06/M12 A3027 RMK A01 T10591119  RH  063%=      5-min Rain = 0
KVP1 120611Z 03001KT M06/M12 A3027 RMK A01 T10601120  RH  063%=      5-min Rain = 0
KVP1 120612Z 03001KT M06/M12 A3027 RMK A01 T10621123  RH  062%=      5-min Rain = 0
KVP1 120613Z 03001KT M07/M13 A3027 RMK A01 T10651125  RH  062%=      5-min Rain = 0
KVP1 120614Z 03000KT M07/M13 A3027 RMK A01 T10671125  RH  063%=      5-min Rain = 0
KVP1 120615Z 03000KT M07/M12 A3027 RMK A01 T10681122  RH  065%=      5-min Rain = 0
KVP1 120616Z 03001KT M07/M12 A3027 RMK A01 T10671119  RH  066%=      5-min Rain = 0
KVP1 120617Z 03001KT M07/M12 A3027 RMK A01 T10661119  RH  066%=      5-min Rain = 0
KVP1 120618Z 03000KT M07/M12 A3027 RMK A01 T10651120  RH  065%=      5-min Rain = 0
KVP1 120619Z 00000KT M07/M12 A3027 RMK A01 T10651124  RH  063%=      5-min Rain = 0
KVP1 120620Z 00000KT M07/M13 A3027 RMK A01 T10671128  RH  062%=      5-min Rain = 0
KVP1 120621Z 00000KT M07/M13 A3027 RMK A01 T10691129  RH  062%=      5-min Rain = 0
KVP1 120622Z 00000KT M07/M13 A3027 RMK A01 T10711130  RH  063%=      5-min Rain = 0
KVP1 120623Z 03000KT M07/M13 A3027 RMK A01 T10731132  RH  063%=      5-min Rain = 0
KVP1 120624Z 03001KT M08/M13 A3027 RMK A01 T10751131  RH  064%=      5-min Rain = 0
KVP1 120625Z 03001KT M08/M13 A3027 RMK A01 T10761129  RH  066%=      5-min Rain = 0
KVP1 120626Z 03001KT M08/M13 A3027 RMK A01 T10771129  RH  066%=      5-min Rain = 0
KVP1 120627Z 02001KT M08/M13 A3027 RMK A01 T10781129  RH  067%=      5-min Rain = 0
KVP1 120628Z 02001KT M08/M13 A3027 RMK A01 T10801130  RH  067%=      5-min Rain = 0
KVP1 120629Z 03002KT M08/M13 A3026 RMK A01 T10801130  RH  068%=      5-min Rain = 0
KVP1 120630Z 03002KT M08/M13 A3026 RMK A01 T10811128  RH  069%=      5-min Rain = 0
KVP1 120631Z 04002KT M08/M13 A3026 RMK A01 T10791125  RH  070%=      5-min Rain = 0
KVP1 120632Z 03002KT M08/M12 A3026 RMK A01 T10771122  RH  070%=      5-min Rain = 0
KVP1 120633Z 03002KT M08/M12 A3026 RMK A01 T10761124  RH  068%=      5-min Rain = 0
KVP1 120634Z 03002KT M08/M13 A3026 RMK A01 T10761126  RH  068%=      5-min Rain = 0
KVP1 120635Z 03002KT M08/M13 A3026 RMK A01 T10771127  RH  067%=      5-min Rain = 0
KVP1 120636Z 04002KT M08/M13 A3026 RMK A01 T10781128  RH  068%=      5-min Rain = 0
KVP1 120637Z 04002KT M08/M13 A3026 RMK A01 T10791128  RH  068%=      5-min Rain = 0
KVP1 120638Z 03002KT M08/M13 A3026 RMK A01 T10791128  RH  068%=      5-min Rain = 0
KVP1 120639Z 04003KT M08/M13 A3026 RMK A01 T10801128  RH  068%=      5-min Rain = 0
KVP1 120640Z 04003KT M08/M13 A3026 RMK A01 T10801128  RH  068%=      5-min Rain = 0
KVP1 120641Z 03003KT M08/M13 A3026 RMK A01 T10801127  RH  069%=      5-min Rain = 0
KVP1 120642Z 03003KT M08/M13 A3026 RMK A01 T10801127  RH  069%=      5-min Rain = 0
KVP1 120643Z 03002KT M08/M13 A3026 RMK A01 T10791127  RH  069%=      5-min Rain = 0
KVP1 120644Z 03002KT M08/M13 A3026 RMK A01 T10791127  RH  068%=      5-min Rain = 0
KVP1 120645Z 03002KT M08/M13 A3026 RMK A01 T10791127  RH  068%=      5-min Rain = 0
KVP1 120646Z 04002KT M08/M13 A3026 RMK A01 T10791127  RH  068%=      5-min Rain = 0
KVP1 120647Z 04002KT M08/M13 A3026 RMK A01 T10791127  RH  068%=      5-min Rain = 0
KVP1 120648Z 04002KT M08/M13 A3026 RMK A01 T10791128  RH  068%=      5-min Rain = 0
KVP1 120649Z 05002KT M08/M13 A3026 RMK A01 T10791128  RH  068%=      5-min Rain = 0
KVP1 120650Z 05001KT M08/M13 A3026 RMK A01 T10801129  RH  068%=      5-min Rain = 0
KVP1 120651Z 05000KT M08/M13 A3026 RMK A01 T10811130  RH  068%=      5-min Rain = 0
KVP1 120652Z 05001KT M08/M13 A3026 RMK A01 T10811128  RH  069%=      5-min Rain = 0
KVP1 120653Z 04001KT M08/M13 A3026 RMK A01 T10791126  RH  069%=      5-min Rain = 0
KVP1 120654Z 03001KT M08/M13 A3026 RMK A01 T10791127  RH  068%=      5-min Rain = 0
KVP1 120655Z 03001KT M08/M13 A3026 RMK A01 T10791127  RH  068%=      5-min Rain = 0
KVP1 120656Z 03001KT M08/M13 A3026 RMK A01 T10791128  RH  068%=      5-min Rain = 0
KVP1 120657Z 03001KT M08/M13 A3026 RMK A01 T10791128  RH  068%=      5-min Rain = 0
KVP1 120658Z 02000KT M08/M13 A3026 RMK A01 T10791128  RH  068%=      5-min Rain = 0
KVP1 120659Z 00000KT M08/M13 A3026 RMK A01 T10781127  RH  068%=      5-min Rain = 0
KVP1 120700Z 00000KT M08/M13 A3026 RMK A01 T10781128  RH  067%=      5-min Rain = 0
KVP1 120701Z 00000KT M08/M13 A3026 RMK A01 T10781128  RH  067%=      5-min Rain = 0
KVP1 120702Z 00000KT M08/M13 A3026 RMK A01 T10791130  RH  067%=      5-min Rain = 0
KVP1 120703Z 00000KT M08/M13 A3026 RMK A01 T10811131  RH  067%=      5-min Rain = 0
KVP1 120704Z 00000KT M08/M13 A3026 RMK A01 T10831133  RH  067%=      5-min Rain = 0
KVP1 120705Z 00000KT M09/M14 A3026 RMK A01 T10861135  RH  068%=      5-min Rain = 0
KVP1 120706Z 00000KT M09/M14 A3026 RMK A01 T10881135  RH  069%=      5-min Rain = 0
KVP1 120707Z 00000KT M09/M14 A3026 RMK A01 T10891135  RH  069%=      5-min Rain = 0
KVP1 120708Z 00000KT M09/M13 A3026 RMK A01 T10901134  RH  070%=      5-min Rain = 0
KVP1 120709Z 00000KT M09/M13 A3025 RMK A01 T10901133  RH  071%=      5-min Rain = 0
KVP1 120710Z 00000KT M09/M13 A3025 RMK A01 T10901133  RH  071%=      5-min Rain = 0
KVP1 120711Z 00000KT M09/M13 A3025 RMK A01 T10901132  RH  071%=      5-min Rain = 0
KVP1 120712Z 00000KT M09/M13 A3025 RMK A01 T10881131  RH  071%=      5-min Rain = 0
KVP1 120713Z 00000KT M09/M13 A3025 RMK A01 T10881131  RH  071%=      5-min Rain = 0
KVP1 120714Z 00000KT M09/M13 A3025 RMK A01 T10881131  RH  071%=      5-min Rain = 0
KVP1 120715Z 00000KT M09/M13 A3025 RMK A01 T10871131  RH  071%=      5-min Rain = 0
KVP1 120716Z 00000KT M09/M13 A3025 RMK A01 T10881132  RH  070%=      5-min Rain = 0
KVP1 120717Z 00000KT M09/M13 A3025 RMK A01 T10871132  RH  070%=      5-min Rain = 0
KVP1 120718Z 00000KT M09/M13 A3025 RMK A01 T10871132  RH  070%=      5-min Rain = 0
KVP1 120719Z 00000KT M09/M13 A3025 RMK A01 T10871131  RH  070%=      5-min Rain = 0
KVP1 120720Z 00000KT M09/M13 A3025 RMK A01 T10871132  RH  070%=      5-min Rain = 0
KVP1 120721Z 00000KT M09/M13 A3025 RMK A01 T10871132  RH  070%=      5-min Rain = 0
KVP1 120722Z 00000KT M09/M13 A3025 RMK A01 T10861132  RH  070%=      5-min Rain = 0
KVP1 120723Z 00000KT M09/M13 A3025 RMK A01 T10861132  RH  069%=      5-min Rain = 0
KVP1 120724Z 00000KT M09/M13 A3025 RMK A01 T10871133  RH  069%=      5-min Rain = 0
KVP1 120725Z 00000KT M09/M13 A3025 RMK A01 T10871133  RH  069%=      5-min Rain = 0
KVP1 120726Z 07001KT M09/M13 A3025 RMK A01 T10881134  RH  069%=      5-min Rain = 0
KVP1 120727Z 07001KT M09/M13 A3025 RMK A01 T10881134  RH  070%=      5-min Rain = 0
KVP1 120728Z 07001KT M09/M13 A3025 RMK A01 T10881133  RH  070%=      5-min Rain = 0
KVP1 120729Z 07001KT M09/M13 A3025 RMK A01 T10881133  RH  070%=      5-min Rain = 0
KVP1 120730Z 06001KT M09/M13 A3025 RMK A01 T10881134  RH  070%=      5-min Rain = 0
KVP1 120731Z 06001KT M09/M13 A3025 RMK A01 T10881134  RH  070%=      5-min Rain = 0
KVP1 120732Z 06001KT M09/M13 A3025 RMK A01 T10891134  RH  070%=      5-min Rain = 0
KVP1 120733Z 05001KT M09/M13 A3025 RMK A01 T10891134  RH  070%=      5-min Rain = 0
KVP1 120734Z 05002KT M09/M13 A3025 RMK A01 T10891133  RH  070%=      5-min Rain = 0
KVP1 120735Z 05002KT M09/M13 A3024 RMK A01 T10891133  RH  070%=      5-min Rain = 0
KVP1 120736Z 05002KT M09/M13 A3024 RMK A01 T10891133  RH  070%=      5-min Rain = 0
KVP1 120737Z 05002KT M09/M13 A3024 RMK A01 T10891133  RH  070%=      5-min Rain = 0
KVP1 120738Z 06002KT M09/M13 A3024 RMK A01 T10891133  RH  070%=      5-min Rain = 0
KVP1 120739Z 06002KT M09/M13 A3024 RMK A01 T10891133  RH  071%=      5-min Rain = 0
KVP1 120740Z 06003KT M09/M13 A3024 RMK A01 T10881133  RH  070%=      5-min Rain = 0
KVP1 120741Z 06003KT M09/M13 A3024 RMK A01 T10881133  RH  070%=      5-min Rain = 0
KVP1 120742Z 06003KT M09/M13 A3024 RMK A01 T10871133  RH  070%=      5-min Rain = 0
KVP1 120743Z 06003KT M09/M13 A3024 RMK A01 T10861132  RH  070%=      5-min Rain = 0
KVP1 120744Z 06003KT M09/M13 A3024 RMK A01 T10851131  RH  069%=      5-min Rain = 0
KVP1 120745Z 06003KT M08/M13 A3024 RMK A01 T10841130  RH  069%=      5-min Rain = 0
KVP1 120746Z 06003KT M08/M13 A3024 RMK A01 T10821129  RH  069%=      5-min Rain = 0
KVP1 120747Z 06003KT M08/M13 A3024 RMK A01 T10811126  RH  070%=      5-min Rain = 0
KVP1 120748Z 06004KT M08/M12 A3024 RMK A01 T10781122  RH  071%=      5-min Rain = 0
KVP1 120749Z 06003KT M08/M12 A3024 RMK A01 T10751119  RH  071%=      5-min Rain = 0
KVP1 120750Z 06003KT M07/M12 A3024 RMK A01 T10711117  RH  070%=      5-min Rain = 0
KVP1 120751Z 05003KT M07/M12 A3024 RMK A01 T10691117  RH  069%=      5-min Rain = 0
KVP1 120752Z 05003KT M07/M12 A3024 RMK A01 T10681118  RH  067%=      5-min Rain = 0
KVP1 120753Z 05003KT M07/M12 A3024 RMK A01 T10671118  RH  067%=      5-min Rain = 0
KVP1 120754Z 05003KT M07/M12 A3024 RMK A01 T10661118  RH  066%=      5-min Rain = 0
KVP1 120755Z 06003KT M07/M12 A3024 RMK A01 T10661119  RH  066%=      5-min Rain = 0
KVP1 120756Z 06003KT M07/M12 A3024 RMK A01 T10651119  RH  065%=      5-min Rain = 0
KVP1 120757Z 06003KT M07/M12 A3024 RMK A01 T10651120  RH  065%=      5-min Rain = 0
KVP1 120758Z 06003KT M07/M12 A3024 RMK A01 T10651119  RH  066%=      5-min Rain = 0
KVP1 120759Z 06003KT M07/M12 A3024 RMK A01 T10661119  RH  066%=      5-min Rain = 0
KVP1 120800Z 06003KT M07/M12 A3024 RMK A01 T10661120  RH  066%=      5-min Rain = 0
KVP1 120801Z 06004KT M07/M12 A3024 RMK A01 T10671121  RH  066%=      5-min Rain = 0
KVP1 120802Z 06004KT M07/M12 A3023 RMK A01 T10671121  RH  066%=      5-min Rain = 0
KVP1 120803Z 06004KT M07/M12 A3023 RMK A01 T10671120  RH  066%=      5-min Rain = 0
KVP1 120804Z 07004KT M07/M12 A3023 RMK A01 T10681121  RH  066%=      5-min Rain = 0
KVP1 120805Z 07005KT M07/M12 A3023 RMK A01 T10681120  RH  066%=      5-min Rain = 0
KVP1 120806Z 07005KT M07/M12 A3023 RMK A01 T10681119  RH  067%=      5-min Rain = 0
KVP1 120807Z 07005KT M07/M12 A3024 RMK A01 T10681118  RH  067%=      5-min Rain = 0
KVP1 120808Z 06004KT M07/M12 A3024 RMK A01 T10681118  RH  067%=      5-min Rain = 0
KVP1 120809Z 06004KT M07/M12 A3024 RMK A01 T10681119  RH  067%=      5-min Rain = 0
KVP1 120810Z 06004KT M07/M12 A3024 RMK A01 T10681119  RH  067%=      5-min Rain = 0
KVP1 120811Z 06004KT M07/M12 A3024 RMK A01 T10681120  RH  067%=      5-min Rain = 0
KVP1 120812Z 07004KT M07/M12 A3024 RMK A01 T10681120  RH  067%=      5-min Rain = 0
KVP1 120813Z 07004KT M07/M12 A3024 RMK A01 T10681120  RH  067%=      5-min Rain = 0
KVP1 120814Z 07004KT M07/M12 A3024 RMK A01 T10681119  RH  067%=      5-min Rain = 0
KVP1 120815Z 07004KT M07/M12 A3024 RMK A01 T10681120  RH  066%=      5-min Rain = 0
KVP1 120816Z 07003KT M07/M12 A3024 RMK A01 T10691122  RH  066%=      5-min Rain = 0
KVP1 120817Z 07003KT M07/M12 A3024 RMK A01 T10691121  RH  066%=      5-min Rain = 0
KVP1 120818Z 06002KT M07/M12 A3024 RMK A01 T10691120  RH  067%=      5-min Rain = 0
KVP1 120819Z 06002KT M07/M12 A3025 RMK A01 T10671117  RH  068%=      5-min Rain = 0
KVP1 120820Z 06002KT M06/M11 A3025 RMK A01 T10641113  RH  068%=      5-min Rain = 0
KVP1 120821Z 06002KT M06/M11 A3025 RMK A01 T10611110  RH  068%=      5-min Rain = 0
KVP1 120822Z 06002KT M06/M11 A3025 RMK A01 T10591113  RH  066%=      5-min Rain = 0
KVP1 120823Z 06002KT M06/M12 A3025 RMK A01 T10601116  RH  065%=      5-min Rain = 0
KVP1 120824Z 05002KT M06/M12 A3025 RMK A01 T10631118  RH  065%=      5-min Rain = 0
KVP1 120825Z 04001KT M06/M12 A3025 RMK A01 T10641119  RH  065%=      5-min Rain = 0
KVP1 120826Z 02001KT M07/M12 A3025 RMK A01 T10661122  RH  065%=      5-min Rain = 0
KVP1 120827Z 01001KT M07/M13 A3025 RMK A01 T10711128  RH  064%=      5-min Rain = 0
KVP1 120828Z 00001KT M08/M14 A3025 RMK A01 T10791135  RH  064%=      5-min Rain = 0
KVP1 120829Z 00001KT M08/M14 A3025 RMK A01 T10841136  RH  066%=      5-min Rain = 0
KVP1 120830Z 00000KT M09/M14 A3025 RMK A01 T10881137  RH  068%=      5-min Rain = 0
KVP1 120831Z 00000KT M09/M14 A3025 RMK A01 T10911137  RH  069%=      5-min Rain = 0
KVP1 120832Z 00000KT M09/M14 A3024 RMK A01 T10931137  RH  070%=      5-min Rain = 0
KVP1 120833Z 00000KT M10/M14 A3024 RMK A01 T10951137  RH  071%=      5-min Rain = 0
KVP1 120834Z 00000KT M10/M14 A3025 RMK A01 T10971138  RH  072%=      5-min Rain = 0
KVP1 120835Z 00000KT M10/M14 A3025 RMK A01 T11001139  RH  073%=      5-min Rain = 0
KVP1 120836Z 00000KT M10/M14 A3025 RMK A01 T11021140  RH  074%=      5-min Rain = 0
KVP1 120837Z 00000KT M10/M14 A3024 RMK A01 T11041141  RH  074%=      5-min Rain = 0
KVP1 120838Z 00000KT M11/M14 A3024 RMK A01 T11051142  RH  074%=      5-min Rain = 0
KVP1 120839Z 00000KT M11/M14 A3024 RMK A01 T11061142  RH  075%=      5-min Rain = 0
KVP1 120840Z 00000KT M11/M14 A3024 RMK A01 T11061142  RH  075%=      5-min Rain = 0
KVP1 120841Z 12000KT M11/M14 A3024 RMK A01 T11071142  RH  075%=      5-min Rain = 0
KVP1 120842Z 17000KT M11/M14 A3024 RMK A01 T11071142  RH  075%=      5-min Rain = 0
KVP1 120843Z 17000KT M11/M14 A3024 RMK A01 T11071142  RH  075%=      5-min Rain = 0
KVP1 120844Z 00000KT M11/M14 A3024 RMK A01 T11071141  RH  076%=      5-min Rain = 0
KVP1 120845Z 00000KT M11/M14 A3024 RMK A01 T11061140  RH  076%=      5-min Rain = 0
KVP1 120846Z 25001KT M11/M14 A3024 RMK A01 T11061141  RH  076%=      5-min Rain = 0
KVP1 120847Z 25002KT M11/M14 A3024 RMK A01 T11061141  RH  076%=      5-min Rain = 0
KVP1 120848Z 25003KT M11/M14 A3024 RMK A01 T11051140  RH  076%=      5-min Rain = 0
KVP1 120849Z 24003KT M10/M14 A3024 RMK A01 T11031139  RH  074%=      5-min Rain = 0
KVP1 120850Z 23003KT M10/M14 A3023 RMK A01 T11021141  RH  073%=      5-min Rain = 0
KVP1 120851Z 22003KT M10/M14 A3023 RMK A01 T11031141  RH  074%=      5-min Rain = 0
KVP1 120852Z 20003KT M10/M14 A3023 RMK A01 T11031139  RH  075%=      5-min Rain = 0
KVP1 120853Z 19003KT M10/M14 A3023 RMK A01 T11031139  RH  075%=      5-min Rain = 0
KVP1 120854Z 18003KT M10/M14 A3023 RMK A01 T11041139  RH  075%=      5-min Rain = 0
KVP1 120855Z 18003KT M10/M14 A3023 RMK A01 T11041139  RH  075%=      5-min Rain = 0
KVP1 120856Z 18003KT M11/M14 A3023 RMK A01 T11051140  RH  075%=      5-min Rain = 0
KVP1 120857Z 19003KT M11/M14 A3023 RMK A01 T11051139  RH  076%=      5-min Rain = 0
KVP1 120858Z 21004KT M11/M14 A3023 RMK A01 T11051139  RH  077%=      5-min Rain = 0
KVP1 120859Z 23006KT M11/M14 A3022 RMK A01 T11061138  RH  077%=      5-min Rain = 0
KVP1 120900Z 23007KT M11/M14 A3022 RMK A01 T11071138  RH  078%=      5-min Rain = 0
KVP1 120901Z 23007KT M11/M14 A3022 RMK A01 T11071136  RH  079%=      5-min Rain = 0
KVP1 120902Z 22006KT M11/M14 A3022 RMK A01 T11071136  RH  079%=      5-min Rain = 0
KVP1 120903Z 20005KT M11/M14 A3022 RMK A01 T11061135  RH  080%=      5-min Rain = 0
KVP1 120904Z 19005KT M11/M13 A3022 RMK A01 T11061134  RH  080%=      5-min Rain = 0
KVP1 120905Z 19005KT M10/M13 A3022 RMK A01 T11041131  RH  080%=      5-min Rain = 0
KVP1 120906Z 19005KT M10/M13 A3022 RMK A01 T11031131  RH  080%=      5-min Rain = 0
KVP1 120907Z 18005KT M10/M13 A3022 RMK A01 T11031131  RH  080%=      5-min Rain = 0
KVP1 120908Z 19005KT M10/M13 A3022 RMK A01 T11021131  RH  079%=      5-min Rain = 0
KVP1 120909Z 19005KT M10/M13 A3022 RMK A01 T11021132  RH  079%=      5-min Rain = 0
KVP1 120910Z 20005KT M10/M13 A3022 RMK A01 T11031133  RH  079%=      5-min Rain = 0
KVP1 120911Z 21006KT M10/M13 A3022 RMK A01 T11041134  RH  079%=      5-min Rain = 0
KVP1 120912Z 22007KT M11/M14 A3022 RMK A01 T11051135  RH  079%=      5-min Rain = 0
KVP1 120913Z 22007KT M11/M14 A3022 RMK A01 T11051135  RH  079%=      5-min Rain = 0
KVP1 120914Z 22006KT M11/M14 A3022 RMK A01 T11061136  RH  079%=      5-min Rain = 0
KVP1 120915Z 22006KT M11/M14 A3022 RMK A01 T11061135  RH  079%=      5-min Rain = 0
KVP1 120916Z 22006KT M11/M14 A3022 RMK A01 T11061135  RH  079%=      5-min Rain = 0
KVP1 120917Z 22006KT M11/M14 A3022 RMK A01 T11071135  RH  079%=      5-min Rain = 0
KVP1 120918Z 22006KT M11/M14 A3022 RMK A01 T11071135  RH  079%=      5-min Rain = 0
KVP1 120919Z 22006KT M11/M14 A3022 RMK A01 T11071136  RH  080%=      5-min Rain = 0
KVP1 120920Z 21006KT M11/M14 A3022 RMK A01 T11071136  RH  080%=      5-min Rain = 0
KVP1 120921Z 21006KT M11/M14 A3022 RMK A01 T11081136  RH  080%=      5-min Rain = 0
KVP1 120922Z 21006KT M11/M14 A3022 RMK A01 T11081136  RH  080%=      5-min Rain = 0
KVP1 120923Z 20006KT M11/M14 A3022 RMK A01 T11071136  RH  080%=      5-min Rain = 0
KVP1 120924Z 20005KT M11/M14 A3022 RMK A01 T11071136  RH  079%=      5-min Rain = 0
KVP1 120925Z 20006KT M11/M14 A3022 RMK A01 T11071136  RH  079%=      5-min Rain = 0
KVP1 120926Z 21006KT M11/M14 A3022 RMK A01 T11071136  RH  079%=      5-min Rain = 0
KVP1 120927Z 21006KT M11/M14 A3022 RMK A01 T11071136  RH  079%=      5-min Rain = 0
KVP1 120928Z 22006KT M11/M14 A3022 RMK A01 T11081137  RH  079%=      5-min Rain = 0
KVP1 120929Z 22006KT M11/M14 A3022 RMK A01 T11071137  RH  079%=      5-min Rain = 0
KVP1 120930Z 22006KT M11/M14 A3022 RMK A01 T11081137  RH  079%=      5-min Rain = 0
KVP1 120931Z 21006KT M11/M14 A3022 RMK A01 T11081138  RH  079%=      5-min Rain = 0
KVP1 120932Z 21006KT M11/M14 A3022 RMK A01 T11081138  RH  079%=      5-min Rain = 0
KVP1 120933Z 21006KT M11/M14 A3022 RMK A01 T11091138  RH  079%=      5-min Rain = 0
KVP1 120934Z 21007KT M11/M14 A3022 RMK A01 T11081138  RH  079%=      5-min Rain = 0
KVP1 120935Z 22007KT M11/M14 A3022 RMK A01 T11081138  RH  079%=      5-min Rain = 0
KVP1 120936Z 22007KT M11/M14 A3022 RMK A01 T11081138  RH  078%=      5-min Rain = 0
KVP1 120937Z 23007KT M11/M14 A3022 RMK A01 T11081139  RH  078%=      5-min Rain = 0
KVP1 120938Z 23008KT M11/M14 A3022 RMK A01 T11081139  RH  078%=      5-min Rain = 0
KVP1 120939Z 23009KT M11/M14 A3022 RMK A01 T11081139  RH  078%=      5-min Rain = 0
KVP1 120940Z 23009KT M11/M14 A3022 RMK A01 T11081139  RH  078%=      5-min Rain = 0
KVP1 120941Z 23008KT M11/M14 A3022 RMK A01 T11081139  RH  078%=      5-min Rain = 0
KVP1 120942Z 22008KT M11/M14 A3022 RMK A01 T11071138  RH  078%=      5-min Rain = 0
KVP1 120943Z 22008KT M11/M14 A3022 RMK A01 T11071137  RH  078%=      5-min Rain = 0
KVP1 120944Z 23009KT M11/M14 A3023 RMK A01 T11071137  RH  078%=      5-min Rain = 0
KVP1 120945Z 23009KT M11/M14 A3023 RMK A01 T11061136  RH  078%=      5-min Rain = 0
KVP1 120946Z 24008KT M11/M14 A3023 RMK A01 T11061137  RH  078%=      5-min Rain = 0
KVP1 120947Z 23008KT M11/M14 A3023 RMK A01 T11061137  RH  078%=      5-min Rain = 0
KVP1 120948Z 23008KT M11/M14 A3023 RMK A01 T11061137  RH  078%=      5-min Rain = 0
KVP1 120949Z 23008KT M11/M14 A3022 RMK A01 T11061137  RH  078%=      5-min Rain = 0
KVP1 120950Z 23008KT M11/M14 A3022 RMK A01 T11061137  RH  078%=      5-min Rain = 0
KVP1 120951Z 23008KT M11/M14 A3022 RMK A01 T11061137  RH  078%=      5-min Rain = 0
KVP1 120952Z 23008KT M11/M14 A3022 RMK A01 T11061137  RH  078%=      5-min Rain = 0
KVP1 120953Z 23007KT M11/M14 A3022 RMK A01 T11061137  RH  078%=      5-min Rain = 0
KVP1 120954Z 23007KT M11/M14 A3022 RMK A01 T11061137  RH  078%=      5-min Rain = 0
KVP1 120955Z 23007KT M11/M14 A3022 RMK A01 T11061138  RH  078%=      5-min Rain = 0
KVP1 120956Z 23007KT M11/M14 A3021 RMK A01 T11061137  RH  078%=      5-min Rain = 0
KVP1 120957Z 23007KT M11/M14 A3021 RMK A01 T11061137  RH  078%=      5-min Rain = 0
KVP1 120958Z 23007KT M11/M14 A3021 RMK A01 T11061137  RH  078%=      5-min Rain = 0
KVP1 120959Z 23007KT M11/M14 A3022 RMK A01 T11061138  RH  078%=      5-min Rain = 0
KVP1 121000Z 24007KT M11/M14 A3022 RMK A01 T11061138  RH  077%=      5-min Rain = 0
KVP1 121001Z 24007KT M11/M14 A3022 RMK A01 T11061138  RH  077%=      5-min Rain = 0
KVP1 121002Z 24007KT M11/M14 A3022 RMK A01 T11061138  RH  077%=      5-min Rain = 0
KVP1 121003Z 24007KT M11/M14 A3022 RMK A01 T11061138  RH  078%=      5-min Rain = 0
KVP1 121004Z 24007KT M11/M14 A3021 RMK A01 T11061137  RH  077%=      5-min Rain = 0
KVP1 121005Z 24008KT M11/M14 A3021 RMK A01 T11051137  RH  077%=      5-min Rain = 0
KVP1 121006Z 24008KT M10/M14 A3021 RMK A01 T11041137  RH  077%=      5-min Rain = 0
KVP1 121007Z 24008KT M10/M14 A3021 RMK A01 T11041137  RH  076%=      5-min Rain = 0
KVP1 121008Z 24008KT M10/M14 A3022 RMK A01 T11041138  RH  076%=      5-min Rain = 0
KVP1 121009Z 24008KT M10/M14 A3022 RMK A01 T11041138  RH  076%=      5-min Rain = 0
KVP1 121010Z 24008KT M10/M14 A3022 RMK A01 T11041138  RH  076%=      5-min Rain = 0
KVP1 121011Z 24007KT M10/M14 A3022 RMK A01 T11041138  RH  076%=      5-min Rain = 0
KVP1 121012Z 24007KT M10/M14 A3022 RMK A01 T11041138  RH  077%=      5-min Rain = 0
KVP1 121013Z 24008KT M10/M14 A3022 RMK A01 T11041137  RH  077%=      5-min Rain = 0
KVP1 121014Z 24008KT M10/M14 A3022 RMK A01 T11041137  RH  077%=      5-min Rain = 0
KVP1 121015Z 24008KT M10/M14 A3022 RMK A01 T11041136  RH  077%=      5-min Rain = 0
KVP1 121016Z 24008KT M10/M14 A3022 RMK A01 T11031136  RH  077%=      5-min Rain = 0
KVP1 121017Z 24008KT M10/M14 A3022 RMK A01 T11041136  RH  077%=      5-min Rain = 0
KVP1 121018Z 23008KT M10/M14 A3022 RMK A01 T11041136  RH  077%=      5-min Rain = 0
KVP1 121019Z 23008KT M10/M14 A3022 RMK A01 T11041136  RH  078%=      5-min Rain = 0
KVP1 121020Z 24008KT M10/M14 A3022 RMK A01 T11041136  RH  078%=      5-min Rain = 0
KVP1 121021Z 24007KT M11/M14 A3022 RMK A01 T11051136  RH  078%=      5-min Rain = 0
KVP1 121022Z 24007KT M11/M14 A3022 RMK A01 T11051136  RH  078%=      5-min Rain = 0
KVP1 121023Z 24008KT M11/M14 A3022 RMK A01 T11051136  RH  078%=      5-min Rain = 0
KVP1 121024Z 23007KT M11/M14 A3022 RMK A01 T11061137  RH  078%=      5-min Rain = 0
KVP1 121025Z 23008KT M11/M14 A3022 RMK A01 T11051136  RH  078%=      5-min Rain = 0
KVP1 121026Z 23007KT M11/M14 A3022 RMK A01 T11061137  RH  078%=      5-min Rain = 0
KVP1 121027Z 22007KT M11/M14 A3022 RMK A01 T11061138  RH  078%=      5-min Rain = 0
KVP1 121028Z 22007KT M11/M14 A3022 RMK A01 T11071138  RH  078%=      5-min Rain = 0
KVP1 121029Z 23007KT M11/M14 A3022 RMK A01 T11071138  RH  078%=      5-min Rain = 0
KVP1 121030Z 23007KT M11/M14 A3022 RMK A01 T11071138  RH  078%=      5-min Rain = 0
KVP1 121031Z 23007KT M11/M14 A3022 RMK A01 T11071138  RH  078%=      5-min Rain = 0
KVP1 121032Z 23007KT M11/M14 A3022 RMK A01 T11071138  RH  078%=      5-min Rain = 0
KVP1 121033Z 23007KT M11/M14 A3022 RMK A01 T11071138  RH  078%=      5-min Rain = 0
KVP1 121034Z 23007KT M11/M14 A3022 RMK A01 T11071138  RH  078%=      5-min Rain = 0
KVP1 121035Z 23007KT M11/M14 A3022 RMK A01 T11071138  RH  078%=      5-min Rain = 0
KVP1 121036Z 23007KT M11/M14 A3022 RMK A01 T11071138  RH  078%=      5-min Rain = 0
KVP1 121037Z 23007KT M11/M14 A3022 RMK A01 T11071138  RH  077%=      5-min Rain = 0
KVP1 121038Z 23007KT M11/M14 A3022 RMK A01 T11071138  RH  077%=      5-min Rain = 0
KVP1 121039Z 23007KT M11/M14 A3022 RMK A01 T11071139  RH  077%=      5-min Rain = 0
KVP1 121040Z 23007KT M11/M14 A3022 RMK A01 T11071139  RH  077%=      5-min Rain = 0
KVP1 121041Z 23007KT M11/M14 A3022 RMK A01 T11071139  RH  077%=      5-min Rain = 0
KVP1 121042Z 24008KT M11/M14 A3022 RMK A01 T11071139  RH  077%=      5-min Rain = 0
KVP1 121043Z 24007KT M11/M14 A3022 RMK A01 T11071139  RH  077%=      5-min Rain = 0
KVP1 121044Z 24007KT M11/M14 A3022 RMK A01 T11071140  RH  077%=      5-min Rain = 0
KVP1 121045Z 24007KT M11/M14 A3022 RMK A01 T11081141  RH  077%=      5-min Rain = 0
KVP1 121046Z 24007KT M11/M14 A3022 RMK A01 T11091141  RH  077%=      5-min Rain = 0
KVP1 121047Z 24007KT M11/M14 A3022 RMK A01 T11081140  RH  077%=      5-min Rain = 0
KVP1 121048Z 24007KT M11/M14 A3022 RMK A01 T11091141  RH  077%=      5-min Rain = 0
KVP1 121049Z 24007KT M11/M14 A3022 RMK A01 T11091141  RH  077%=      5-min Rain = 0
KVP1 121050Z 24007KT M11/M14 A3022 RMK A01 T11081140  RH  077%=      5-min Rain = 0
KVP1 121051Z 24007KT M11/M14 A3022 RMK A01 T11081140  RH  077%=      5-min Rain = 0
KVP1 121052Z 24008KT M11/M14 A3022 RMK A01 T11071140  RH  077%=      5-min Rain = 0
KVP1 121053Z 23008KT M11/M14 A3022 RMK A01 T11071140  RH  077%=      5-min Rain = 0
KVP1 121054Z 24008KT M11/M14 A3022 RMK A01 T11071140  RH  076%=      5-min Rain = 0
KVP1 121055Z 24008KT M11/M14 A3022 RMK A01 T11061140  RH  076%=      5-min Rain = 0
KVP1 121056Z 24008KT M11/M14 A3022 RMK A01 T11061140  RH  076%=      5-min Rain = 0
KVP1 121057Z 24008KT M11/M14 A3022 RMK A01 T11061140  RH  076%=      5-min Rain = 0
KVP1 121058Z 24008KT M11/M14 A3022 RMK A01 T11061140  RH  076%=      5-min Rain = 0
KVP1 121059Z 24007KT M11/M14 A3022 RMK A01 T11061139  RH  076%=      5-min Rain = 0
KVP1 121100Z 23007KT M11/M14 A3022 RMK A01 T11061139  RH  077%=      5-min Rain = 0
KVP1 121101Z 23007KT M11/M14 A3022 RMK A01 T11061139  RH  077%=      5-min Rain = 0
KVP1 121102Z 23007KT M11/M14 A3022 RMK A01 T11051138  RH  077%=      5-min Rain = 0
KVP1 121103Z 24007KT M11/M14 A3022 RMK A01 T11051138  RH  077%=      5-min Rain = 0
KVP1 121104Z 24006KT M10/M14 A3022 RMK A01 T11041137  RH  077%=      5-min Rain = 0
KVP1 121105Z 24006KT M10/M14 A3022 RMK A01 T11021136  RH  076%=      5-min Rain = 0
KVP1 121106Z 23006KT M10/M14 A3022 RMK A01 T11021136  RH  076%=      5-min Rain = 0
KVP1 121107Z 23006KT M10/M14 A3022 RMK A01 T11011136  RH  076%=      5-min Rain = 0
KVP1 121108Z 24006KT M10/M14 A3022 RMK A01 T11001135  RH  075%=      5-min Rain = 0
KVP1 121109Z 24006KT M10/M14 A3022 RMK A01 T10991136  RH  075%=      5-min Rain = 0
KVP1 121110Z 24007KT M10/M14 A3022 RMK A01 T10991136  RH  074%=      5-min Rain = 0
KVP1 121111Z 23007KT M10/M14 A3022 RMK A01 T10991136  RH  074%=      5-min Rain = 0
KVP1 121112Z 23007KT M10/M14 A3022 RMK A01 T10991137  RH  074%=      5-min Rain = 0
KVP1 121113Z 22006KT M10/M14 A3022 RMK A01 T10991137  RH  074%=      5-min Rain = 0
KVP1 121114Z 22006KT M10/M14 A3022 RMK A01 T10991136  RH  074%=      5-min Rain = 0
KVP1 121115Z 22006KT M10/M14 A3022 RMK A01 T10981135  RH  074%=      5-min Rain = 0
KVP1 121116Z 23007KT M10/M14 A3022 RMK A01 T10981135  RH  074%=      5-min Rain = 0
KVP1 121117Z 24006KT M10/M13 A3022 RMK A01 T10971134  RH  074%=      5-min Rain = 0
KVP1 121118Z 24007KT M10/M13 A3022 RMK A01 T10971134  RH  074%=      5-min Rain = 0
KVP1 121119Z 24006KT M10/M13 A3022 RMK A01 T10961134  RH  074%=      5-min Rain = 0
KVP1 121120Z 24006KT M10/M13 A3022 RMK A01 T10961134  RH  074%=      5-min Rain = 0
KVP1 121121Z 23006KT M10/M13 A3022 RMK A01 T10961134  RH  074%=      5-min Rain = 0
KVP1 121122Z 23006KT M10/M13 A3022 RMK A01 T10961134  RH  074%=      5-min Rain = 0
KVP1 121123Z 23006KT M10/M13 A3022 RMK A01 T10961133  RH  074%=      5-min Rain = 0
KVP1 121124Z 23006KT M10/M13 A3022 RMK A01 T10961133  RH  075%=      5-min Rain = 0
KVP1 121125Z 23006KT M10/M13 A3022 RMK A01 T10961132  RH  075%=      5-min Rain = 0
KVP1 121126Z 22006KT M10/M13 A3022 RMK A01 T10951132  RH  074%=      5-min Rain = 0
KVP1 121127Z 22006KT M10/M13 A3022 RMK A01 T10951133  RH  074%=      5-min Rain = 0
KVP1 121128Z 22006KT M10/M13 A3022 RMK A01 T10951133  RH  074%=      5-min Rain = 0
KVP1 121129Z 22006KT M10/M13 A3022 RMK A01 T10961133  RH  074%=      5-min Rain = 0
KVP1 121130Z 22007KT M10/M13 A3022 RMK A01 T10961133  RH  074%=      5-min Rain = 0
KVP1 121131Z 21007KT M09/M13 A3022 RMK A01 T10941131  RH  075%=      5-min Rain = 0
KVP1 121132Z 21007KT M09/M13 A3022 RMK A01 T10941131  RH  074%=      5-min Rain = 0
KVP1 121133Z 21007KT M09/M13 A3022 RMK A01 T10941133  RH  074%=      5-min Rain = 0
KVP1 121134Z 21007KT M10/M13 A3022 RMK A01 T10951134  RH  074%=      5-min Rain = 0
KVP1 121135Z 21007KT M10/M13 A3021 RMK A01 T10961133  RH  074%=      5-min Rain = 0
KVP1 121136Z 22007KT M10/M13 A3021 RMK A01 T10961133  RH  074%=      5-min Rain = 0
KVP1 121137Z 22008KT M10/M14 A3021 RMK A01 T10971135  RH  074%=      5-min Rain = 0
KVP1 121138Z 21008KT M10/M14 A3021 RMK A01 T10981135  RH  074%=      5-min Rain = 0
KVP1 121139Z 21008KT M10/M14 A3021 RMK A01 T10991135  RH  075%=      5-min Rain = 0
KVP1 121140Z 20007KT M10/M14 A3021 RMK A01 T11001136  RH  075%=      5-min Rain = 0
KVP1 121141Z 20007KT M10/M14 A3021 RMK A01 T11001136  RH  075%=      5-min Rain = 0
KVP1 121142Z 21007KT M10/M14 A3021 RMK A01 T11011136  RH  076%=      5-min Rain = 0
KVP1 121143Z 21007KT M10/M14 A3021 RMK A01 T11011135  RH  076%=      5-min Rain = 0
KVP1 121144Z 21007KT M10/M14 A3021 RMK A01 T11011136  RH  076%=      5-min Rain = 0
KVP1 121145Z 21006KT M10/M14 A3021 RMK A01 T11021136  RH  076%=      5-min Rain = 0
KVP1 121146Z 20006KT M10/M14 A3021 RMK A01 T11021136  RH  076%=      5-min Rain = 0
KVP1 121147Z 20006KT M10/M14 A3021 RMK A01 T11021136  RH  076%=      5-min Rain = 0
KVP1 121148Z 21006KT M10/M14 A3021 RMK A01 T11021136  RH  076%=      5-min Rain = 0
KVP1 121149Z 21007KT M10/M14 A3021 RMK A01 T11021136  RH  076%=      5-min Rain = 0
KVP1 121150Z 20007KT M10/M14 A3021 RMK A01 T11021136  RH  076%=      5-min Rain = 0
KVP1 121151Z 20007KT M10/M14 A3021 RMK A01 T11011136  RH  076%=      5-min Rain = 0
KVP1 121152Z 19006KT M10/M14 A3021 RMK A01 T11011135  RH  076%=      5-min Rain = 0
KVP1 121153Z 19006KT M10/M14 A3021 RMK A01 T11001136  RH  075%=      5-min Rain = 0
KVP1 121154Z 20006KT M10/M14 A3021 RMK A01 T11021138  RH  075%=      5-min Rain = 0
KVP1 121155Z 20006KT M10/M14 A3022 RMK A01 T11031138  RH  075%=      5-min Rain = 0
KVP1 121156Z 20006KT M10/M14 A3022 RMK A01 T11031137  RH  076%=      5-min Rain = 0
KVP1 121157Z 20006KT M10/M14 A3022 RMK A01 T11031136  RH  077%=      5-min Rain = 0
KVP1 121158Z 21006KT M10/M14 A3022 RMK A01 T11011135  RH  077%=      5-min Rain = 0
KVP1 121159Z 21006KT M10/M14 A3022 RMK A01 T11011135  RH  076%=      5-min Rain = 0
KVP1 121200Z 21007KT M10/M13 A3022 RMK A01 T11001133  RH  077%=      5-min Rain = 0
KVP1 121201Z 21006KT M10/M13 A3022 RMK A01 T10981131  RH  077%=      5-min Rain = 0
KVP1 121202Z 21006KT M10/M13 A3022 RMK A01 T10971132  RH  076%=      5-min Rain = 0
KVP1 121203Z 21006KT M10/M13 A3022 RMK A01 T10961132  RH  075%=      5-min Rain = 0
KVP1 121204Z 22006KT M10/M13 A3022 RMK A01 T10961132  RH  075%=      5-min Rain = 0
KVP1 121205Z 22005KT M10/M13 A3022 RMK A01 T10961133  RH  074%=      5-min Rain = 0
KVP1 121206Z 22005KT M10/M13 A3022 RMK A01 T10961134  RH  074%=      5-min Rain = 0
KVP1 121207Z 22005KT M10/M13 A3022 RMK A01 T10971134  RH  074%=      5-min Rain = 0
KVP1 121208Z 21005KT M10/M14 A3022 RMK A01 T10981136  RH  074%=      5-min Rain = 0
KVP1 121209Z 21005KT M10/M14 A3022 RMK A01 T10991136  RH  074%=      5-min Rain = 0
KVP1 121210Z 21004KT M10/M13 A3022 RMK A01 T10991134  RH  075%=      5-min Rain = 0
KVP1 121211Z 21004KT M10/M13 A3022 RMK A01 T10971131  RH  076%=      5-min Rain = 0
KVP1 121212Z 21005KT M10/M13 A3022 RMK A01 T10961130  RH  076%=      5-min Rain = 0
KVP1 121213Z 21005KT M10/M13 A3022 RMK A01 T10951130  RH  075%=      5-min Rain = 0
KVP1 121214Z 21006KT M09/M13 A3022 RMK A01 T10941130  RH  075%=      5-min Rain = 0
KVP1 121215Z 20006KT M09/M13 A3021 RMK A01 T10931129  RH  075%=      5-min Rain = 0
KVP1 121216Z 21006KT M09/M13 A3022 RMK A01 T10911128  RH  074%=      5-min Rain = 0
KVP1 121217Z 20005KT M09/M13 A3022 RMK A01 T10891128  RH  074%=      5-min Rain = 0
KVP1 121218Z 21005KT M09/M13 A3022 RMK A01 T10891128  RH  073%=      5-min Rain = 0
KVP1 121219Z 21005KT M09/M13 A3022 RMK A01 T10891129  RH  073%=      5-min Rain = 0
KVP1 121220Z 21005KT M09/M13 A3022 RMK A01 T10891129  RH  073%=      5-min Rain = 0
KVP1 121221Z 21005KT M09/M13 A3022 RMK A01 T10901130  RH  073%=      5-min Rain = 0
KVP1 121222Z 21005KT M09/M13 A3022 RMK A01 T10901130  RH  073%=      5-min Rain = 0
KVP1 121223Z 21005KT M09/M13 A3022 RMK A01 T10901129  RH  073%=      5-min Rain = 0
KVP1 121224Z 20005KT M09/M13 A3022 RMK A01 T10901130  RH  073%=      5-min Rain = 0
KVP1 121225Z 20005KT M09/M13 A3022 RMK A01 T10901130  RH  073%=      5-min Rain = 0
KVP1 121226Z 20005KT M09/M13 A3022 RMK A01 T10911131  RH  073%=      5-min Rain = 0
KVP1 121227Z 19005KT M09/M13 A3022 RMK A01 T10911131  RH  073%=      5-min Rain = 0
KVP1 121228Z 20005KT M09/M13 A3022 RMK A01 T10911131  RH  073%=      5-min Rain = 0
KVP1 121229Z 20005KT M09/M13 A3022 RMK A01 T10921132  RH  073%=      5-min Rain = 0
KVP1 121230Z 20005KT M09/M13 A3022 RMK A01 T10921132  RH  073%=      5-min Rain = 0
KVP1 121231Z 20005KT M09/M13 A3022 RMK A01 T10931131  RH  073%=      5-min Rain = 0
KVP1 121232Z 20005KT M09/M13 A3022 RMK A01 T10931132  RH  074%=      5-min Rain = 0
KVP1 121233Z 20005KT M09/M13 A3022 RMK A01 T10941132  RH  074%=      5-min Rain = 0
KVP1 121234Z 20005KT M09/M13 A3022 RMK A01 T10941133  RH  074%=      5-min Rain = 0
KVP1 121235Z 21005KT M09/M13 A3022 RMK A01 T10941132  RH  074%=      5-min Rain = 0
KVP1 121236Z 21005KT M09/M13 A3022 RMK A01 T10941132  RH  074%=      5-min Rain = 0
KVP1 121237Z 21005KT M10/M13 A3022 RMK A01 T10951133  RH  074%=      5-min Rain = 0
KVP1 121238Z 20005KT M10/M13 A3022 RMK A01 T10951132  RH  074%=      5-min Rain = 0
KVP1 121239Z 20005KT M09/M13 A3022 RMK A01 T10941132  RH  074%=      5-min Rain = 0
KVP1 121240Z 19004KT M10/M13 A3022 RMK A01 T10951133  RH  074%=      5-min Rain = 0
KVP1 121241Z 19004KT M10/M14 A3022 RMK A01 T10961135  RH  073%=      5-min Rain = 0
KVP1 121242Z 19004KT M10/M14 A3022 RMK A01 T10981137  RH  074%=      5-min Rain = 0
KVP1 121243Z 18004KT M10/M14 A3022 RMK A01 T11001137  RH  074%=      5-min Rain = 0
KVP1 121244Z 18005KT M10/M13 A3021 RMK A01 T10991134  RH  076%=      5-min Rain = 0
KVP1 121245Z 18006KT M10/M13 A3021 RMK A01 T10971131  RH  076%=      5-min Rain = 0
KVP1 121246Z 18006KT M10/M13 A3021 RMK A01 T10951130  RH  076%=      5-min Rain = 0
KVP1 121247Z 18007KT M09/M13 A3021 RMK A01 T10941131  RH  074%=      5-min Rain = 0
KVP1 121248Z 18007KT M10/M13 A3021 RMK A01 T10951134  RH  073%=      5-min Rain = 0
KVP1 121249Z 19007KT M10/M14 A3021 RMK A01 T10981137  RH  073%=      5-min Rain = 0
KVP1 121250Z 19007KT M10/M14 A3021 RMK A01 T11011140  RH  074%=      5-min Rain = 0
KVP1 121251Z 18007KT M10/M14 A3021 RMK A01 T11041141  RH  075%=      5-min Rain = 0
KVP1 121252Z 18007KT M11/M14 A3021 RMK A01 T11061140  RH  076%=      5-min Rain = 0
KVP1 121253Z 18007KT M11/M14 A3021 RMK A01 T11071139  RH  077%=      5-min Rain = 0
KVP1 121254Z 18007KT M11/M14 A3021 RMK A01 T11071138  RH  078%=      5-min Rain = 0
KVP1 121255Z 18007KT M11/M14 A3021 RMK A01 T11061136  RH  078%=      5-min Rain = 0
KVP1 121256Z 18007KT M11/M14 A3021 RMK A01 T11061137  RH  078%=      5-min Rain = 0
KVP1 121257Z 17007KT M11/M14 A3021 RMK A01 T11071137  RH  079%=      5-min Rain = 0
KVP1 121258Z 17007KT M11/M14 A3021 RMK A01 T11081138  RH  079%=      5-min Rain = 0
KVP1 121259Z 17006KT M11/M14 A3022 RMK A01 T11091140  RH  079%=      5-min Rain = 0
KVP1 121300Z 17005KT M11/M14 A3022 RMK A01 T11101140  RH  079%=      5-min Rain = 0
KVP1 121301Z 17005KT M11/M14 A3022 RMK A01 T11101138  RH  080%=      5-min Rain = 0
KVP1 121302Z 16005KT M11/M14 A3022 RMK A01 T11091136  RH  080%=      5-min Rain = 0
KVP1 121303Z 17006KT M11/M14 A3022 RMK A01 T11071136  RH  079%=      5-min Rain = 0
KVP1 121304Z 17006KT M11/M14 A3022 RMK A01 T11061136  RH  079%=      5-min Rain = 0
KVP1 121305Z 18006KT M11/M14 A3022 RMK A01 T11061135  RH  079%=      5-min Rain = 0
KVP1 121306Z 17006KT M11/M13 A3023 RMK A01 T11051134  RH  079%=      5-min Rain = 0
KVP1 121307Z 18006KT M11/M13 A3023 RMK A01 T11051134  RH  079%=      5-min Rain = 0
KVP1 121308Z 18006KT M11/M13 A3023 RMK A01 T11051134  RH  079%=      5-min Rain = 0
KVP1 121309Z 19006KT M11/M14 A3023 RMK A01 T11051135  RH  079%=      5-min Rain = 0
KVP1 121310Z 19006KT M11/M14 A3023 RMK A01 T11051135  RH  079%=      5-min Rain = 0
KVP1 121311Z 19007KT M11/M14 A3023 RMK A01 T11051135  RH  079%=      5-min Rain = 0
KVP1 121312Z 19007KT M11/M14 A3023 RMK A01 T11051135  RH  079%=      5-min Rain = 0
KVP1 121313Z 19007KT M10/M14 A3023 RMK A01 T11041135  RH  079%=      5-min Rain = 0
KVP1 121314Z 19007KT M10/M14 A3023 RMK A01 T11041135  RH  078%=      5-min Rain = 0
KVP1 121315Z 19007KT M11/M14 A3023 RMK A01 T11051137  RH  077%=      5-min Rain = 0
KVP1 121316Z 19007KT M11/M14 A3023 RMK A01 T11051138  RH  077%=      5-min Rain = 0
KVP1 121317Z 19007KT M11/M14 A3023 RMK A01 T11051138  RH  077%=      5-min Rain = 0
KVP1 121318Z 19007KT M11/M14 A3023 RMK A01 T11051138  RH  077%=      5-min Rain = 0
KVP1 121319Z 19008KT M11/M14 A3023 RMK A01 T11051138  RH  077%=      5-min Rain = 0
KVP1 121320Z 19008KT M11/M14 A3023 RMK A01 T11051138  RH  077%=      5-min Rain = 0
KVP1 121321Z 18007KT M11/M14 A3023 RMK A01 T11051138  RH  077%=      5-min Rain = 0
KVP1 121322Z 18008KT M11/M14 A3023 RMK A01 T11061138  RH  077%=      5-min Rain = 0
KVP1 121323Z 18008KT M11/M14 A3023 RMK A01 T11061137  RH  078%=      5-min Rain = 0
KVP1 121324Z 18008KT M11/M14 A3023 RMK A01 T11071137  RH  078%=      5-min Rain = 0
KVP1 121325Z 18008KT M11/M14 A3023 RMK A01 T11071136  RH  079%=      5-min Rain = 0
KVP1 121326Z 18009KT M11/M14 A3023 RMK A01 T11061136  RH  079%=      5-min Rain = 0
KVP1 121327Z 18009KT M11/M14 A3023 RMK A01 T11061136  RH  079%=      5-min Rain = 0
KVP1 121328Z 18008KT M11/M14 A3023 RMK A01 T11061136  RH  079%=      5-min Rain = 0
KVP1 121329Z 18008KT M11/M14 A3023 RMK A01 T11061135  RH  079%=      5-min Rain = 0
KVP1 121330Z 18008KT M11/M13 A3023 RMK A01 T11051133  RH  080%=      5-min Rain = 0
KVP1 121331Z 18007KT M10/M13 A3023 RMK A01 T11041131  RH  081%=      5-min Rain = 0
KVP1 121332Z 19007KT M10/M13 A3023 RMK A01 T11021129  RH  080%=      5-min Rain = 0
KVP1 121333Z 19007KT M10/M13 A3023 RMK A01 T11011129  RH  080%=      5-min Rain = 0
KVP1 121334Z 19006KT M10/M13 A3023 RMK A01 T11001129  RH  079%=      5-min Rain = 0
KVP1 121335Z 19006KT M10/M13 A3023 RMK A01 T10991129  RH  079%=      5-min Rain = 0
KVP1 121336Z 19006KT M10/M13 A3023 RMK A01 T10991129  RH  078%=      5-min Rain = 0
KVP1 121337Z 19006KT M10/M13 A3023 RMK A01 T11001132  RH  077%=      5-min Rain = 0
KVP1 121338Z 19006KT M10/M13 A3023 RMK A01 T11011132  RH  078%=      5-min Rain = 0
KVP1 121339Z 18006KT M10/M13 A3023 RMK A01 T10981128  RH  079%=      5-min Rain = 0
KVP1 121340Z 18006KT M10/M13 A3023 RMK A01 T10971128  RH  078%=      5-min Rain = 0
KVP1 121341Z 18006KT M10/M13 A3023 RMK A01 T10971128  RH  078%=      5-min Rain = 0
KVP1 121342Z 18006KT M10/M13 A3023 RMK A01 T10951127  RH  078%=      5-min Rain = 0
KVP1 121343Z 18006KT M09/M13 A3023 RMK A01 T10941126  RH  078%=      5-min Rain = 0
KVP1 121344Z 17006KT M09/M13 A3023 RMK A01 T10931125  RH  077%=      5-min Rain = 0
KVP1 121345Z 17006KT M09/M13 A3023 RMK A01 T10931125  RH  077%=      5-min Rain = 0
KVP1 121346Z 17005KT M09/M13 A3023 RMK A01 T10931125  RH  077%=      5-min Rain = 0
KVP1 121347Z 17005KT M09/M13 A3023 RMK A01 T10931128  RH  076%=      5-min Rain = 0
KVP1 121348Z 16004KT M09/M13 A3023 RMK A01 T10941130  RH  075%=      5-min Rain = 0
KVP1 121349Z 16004KT M10/M13 A3023 RMK A01 T10971134  RH  075%=      5-min Rain = 0
KVP1 121350Z 16005KT M10/M14 A3023 RMK A01 T10991136  RH  075%=      5-min Rain = 0
KVP1 121351Z 17005KT M10/M14 A3023 RMK A01 T11001135  RH  075%=      5-min Rain = 0
KVP1 121352Z 16005KT M10/M14 A3023 RMK A01 T11001136  RH  075%=      5-min Rain = 0
KVP1 121353Z 16005KT M10/M14 A3023 RMK A01 T11021137  RH  076%=      5-min Rain = 0
KVP1 121354Z 16006KT M10/M14 A3023 RMK A01 T11031137  RH  076%=      5-min Rain = 0
KVP1 121355Z 16006KT M10/M14 A3023 RMK A01 T11041138  RH  076%=      5-min Rain = 0
KVP1 121356Z 16006KT M11/M14 A3023 RMK A01 T11061139  RH  076%=      5-min Rain = 0
KVP1 121357Z 16005KT M11/M14 A3023 RMK A01 T11071140  RH  077%=      5-min Rain = 0
KVP1 121358Z 16005KT M11/M14 A3023 RMK A01 T11071139  RH  077%=      5-min Rain = 0
KVP1 121359Z 17005KT M11/M14 A3023 RMK A01 T11071139  RH  078%=      5-min Rain = 0
KVP1 121400Z 16005KT M11/M14 A3023 RMK A01 T11071138  RH  078%=      5-min Rain = 0
KVP1 121401Z 17005KT M11/M14 A3023 RMK A01 T11071137  RH  078%=      5-min Rain = 0
KVP1 121402Z 16005KT M11/M14 A3023 RMK A01 T11061137  RH  078%=      5-min Rain = 0
KVP1 121403Z 16005KT M11/M14 A3023 RMK A01 T11061136  RH  078%=      5-min Rain = 0
KVP1 121404Z 16005KT M10/M14 A3023 RMK A01 T11041135  RH  078%=      5-min Rain = 0
KVP1 121405Z 16005KT M10/M13 A3023 RMK A01 T11031134  RH  078%=      5-min Rain = 0
KVP1 121406Z 16004KT M10/M13 A3023 RMK A01 T11021134  RH  078%=      5-min Rain = 0
KVP1 121407Z 16005KT M10/M13 A3024 RMK A01 T11011133  RH  077%=      5-min Rain = 0
KVP1 121408Z 16005KT M10/M13 A3024 RMK A01 T11001133  RH  077%=      5-min Rain = 0
KVP1 121409Z 16005KT M10/M13 A3023 RMK A01 T11001134  RH  076%=      5-min Rain = 0
KVP1 121410Z 16006KT M10/M13 A3023 RMK A01 T11001134  RH  076%=      5-min Rain = 0
KVP1 121411Z 16006KT M10/M13 A3023 RMK A01 T11001134  RH  076%=      5-min Rain = 0
KVP1 121412Z 16006KT M10/M13 A3023 RMK A01 T11001134  RH  076%=      5-min Rain = 0
KVP1 121413Z 17006KT M10/M13 A3023 RMK A01 T11001133  RH  077%=      5-min Rain = 0
KVP1 121414Z 17006KT M10/M13 A3023 RMK A01 T10991132  RH  077%=      5-min Rain = 0
KVP1 121415Z 18006KT M10/M13 A3023 RMK A01 T10991131  RH  078%=      5-min Rain = 0
KVP1 121416Z 18006KT M10/M13 A3023 RMK A01 T10981130  RH  078%=      5-min Rain = 0
KVP1 121417Z 19006KT M10/M13 A3023 RMK A01 T10981129  RH  078%=      5-min Rain = 0
KVP1 121418Z 19006KT M10/M13 A3023 RMK A01 T10981128  RH  078%=      5-min Rain = 0
KVP1 121419Z 19006KT M10/M13 A3023 RMK A01 T10981128  RH  079%=      5-min Rain = 0
KVP1 121420Z 19006KT M10/M13 A3024 RMK A01 T10971127  RH  079%=      5-min Rain = 0
KVP1 121421Z 19006KT M10/M13 A3024 RMK A01 T10971126  RH  079%=      5-min Rain = 0
KVP1 121422Z 19006KT M10/M13 A3024 RMK A01 T10961125  RH  079%=      5-min Rain = 0
KVP1 121423Z 19006KT M10/M12 A3024 RMK A01 T10951124  RH  079%=      5-min Rain = 0
KVP1 121424Z 19006KT M10/M12 A3024 RMK A01 T10951124  RH  079%=      5-min Rain = 0
KVP1 121425Z 19006KT M09/M12 A3024 RMK A01 T10931122  RH  079%=      5-min Rain = 0
KVP1 121426Z 19006KT M09/M12 A3024 RMK A01 T10931122  RH  079%=      5-min Rain = 0
KVP1 121427Z 19006KT M09/M12 A3024 RMK A01 T10911121  RH  079%=      5-min Rain = 0
KVP1 121428Z 19007KT M09/M12 A3024 RMK A01 T10911120  RH  079%=      5-min Rain = 0
KVP1 121429Z 19007KT M09/M12 A3024 RMK A01 T10891119  RH  079%=      5-min Rain = 0
KVP1 121430Z 19007KT M09/M12 A3024 RMK A01 T10881119  RH  079%=      5-min Rain = 0
KVP1 121431Z 19007KT M09/M12 A3024 RMK A01 T10871118  RH  078%=      5-min Rain = 0
KVP1 121432Z 20006KT M09/M12 A3024 RMK A01 T10861118  RH  078%=      5-min Rain = 0
KVP1 121433Z 20007KT M09/M12 A3024 RMK A01 T10851117  RH  078%=      5-min Rain = 0
KVP1 121434Z 20007KT M09/M12 A3024 RMK A01 T10851117  RH  077%=      5-min Rain = 0
KVP1 121435Z 19007KT M08/M12 A3024 RMK A01 T10831117  RH  077%=      5-min Rain = 0
KVP1 121436Z 20006KT M08/M12 A3024 RMK A01 T10821116  RH  076%=      5-min Rain = 0
KVP1 121437Z 20007KT M08/M12 A3024 RMK A01 T10811116  RH  076%=      5-min Rain = 0
KVP1 121438Z 20007KT M08/M12 A3024 RMK A01 T10801115  RH  076%=      5-min Rain = 0
KVP1 121439Z 20006KT M08/M12 A3024 RMK A01 T10781115  RH  075%=      5-min Rain = 0
KVP1 121440Z 20006KT M08/M11 A3024 RMK A01 T10771114  RH  075%=      5-min Rain = 0
KVP1 121441Z 20006KT M08/M11 A3024 RMK A01 T10751112  RH  075%=      5-min Rain = 0
KVP1 121442Z 20007KT M07/M11 A3024 RMK A01 T10731111  RH  074%=      5-min Rain = 0
KVP1 121443Z 20006KT M07/M11 A3024 RMK A01 T10701109  RH  074%=      5-min Rain = 0
KVP1 121444Z 20007KT M07/M11 A3024 RMK A01 T10681108  RH  074%=      5-min Rain = 0
KVP1 121445Z 20007KT M07/M11 A3024 RMK A01 T10671108  RH  073%=      5-min Rain = 0
KVP1 121446Z 20007KT M07/M11 A3024 RMK A01 T10651107  RH  072%=      5-min Rain = 0
KVP1 121447Z 20007KT M06/M11 A3023 RMK A01 T10631105  RH  072%=      5-min Rain = 0
KVP1 121448Z 20008KT M06/M11 A3023 RMK A01 T10611105  RH  071%=      5-min Rain = 0
KVP1 121449Z 19007KT M06/M11 A3023 RMK A01 T10601105  RH  070%=      5-min Rain = 0
KVP1 121450Z 19008KT M06/M11 A3023 RMK A01 T10591105  RH  070%=      5-min Rain = 0
KVP1 121451Z 20008KT M06/M11 A3023 RMK A01 T10581105  RH  069%=      5-min Rain = 0
KVP1 121452Z 20008KT M06/M10 A3023 RMK A01 T10571104  RH  069%=      5-min Rain = 0
KVP1 121453Z 20008KT M06/M10 A3023 RMK A01 T10561104  RH  069%=      5-min Rain = 0
KVP1 121454Z 20008KT M05/M10 A3023 RMK A01 T10541103  RH  069%=      5-min Rain = 0
KVP1 121455Z 20008KT M05/M10 A3023 RMK A01 T10531102  RH  069%=      5-min Rain = 0
KVP1 121456Z 20009KT M05/M10 A3023 RMK A01 T10521103  RH  068%=      5-min Rain = 0
KVP1 121457Z 20009KT M05/M10 A3023 RMK A01 T10521103  RH  067%=      5-min Rain = 0
KVP1 121458Z 20009KT M05/M10 A3023 RMK A01 T10511103  RH  067%=      5-min Rain = 0
KVP1 121459Z 19009KT M05/M10 A3023 RMK A01 T10501102  RH  067%=      5-min Rain = 0
KVP1 121500Z 20008KT M05/M10 A3023 RMK A01 T10481101  RH  066%=      5-min Rain = 0
KVP1 121501Z 20009KT M05/M10 A3023 RMK A01 T10481102  RH  066%=      5-min Rain = 0
KVP1 121502Z 20010KT M05/M10 A3023 RMK A01 T10471101  RH  066%=      5-min Rain = 0
KVP1 121503Z 20009KT M05/M10 A3023 RMK A01 T10461101  RH  065%=      5-min Rain = 0
KVP1 121504Z 21007KT M05/M10 A3023 RMK A01 T10451100  RH  065%=      5-min Rain = 0
KVP1 121505Z 20007KT M04/M10 A3023 RMK A01 T10441099  RH  066%=      5-min Rain = 0
KVP1 121506Z 20008KT M04/M10 A3023 RMK A01 T10431098  RH  066%=      5-min Rain = 0
KVP1 121507Z 20007KT M04/M10 A3023 RMK A01 T10421097  RH  066%=      5-min Rain = 0
KVP1 121508Z 21007KT M04/M10 A3023 RMK A01 T10421097  RH  066%=      5-min Rain = 0
KVP1 121509Z 20010KT M04/M10 A3023 RMK A01 T10411096  RH  065%=      5-min Rain = 0
KVP1 121510Z 21008KT M04/M10 A3024 RMK A01 T10411098  RH  064%=      5-min Rain = 0
KVP1 121511Z 20009KT M04/M10 A3024 RMK A01 T10401096  RH  065%=      5-min Rain = 0
KVP1 121512Z 20010KT M04/M10 A3023 RMK A01 T10381096  RH  064%=      5-min Rain = 0
KVP1 121513Z 19010KT M04/M10 A3023 RMK A01 T10381097  RH  064%=      5-min Rain = 0
KVP1 121514Z 20008KT M04/M10 A3023 RMK A01 T10381096  RH  064%=      5-min Rain = 0
KVP1 121515Z 20009KT M04/M09 A3023 RMK A01 T10361094  RH  064%=      5-min Rain = 0
KVP1 121516Z 20008KT M04/M09 A3023 RMK A01 T10351094  RH  064%=      5-min Rain = 0
KVP1 121517Z 20009KT M03/M09 A3023 RMK A01 T10341094  RH  063%=      5-min Rain = 0
KVP1 121518Z 20008KT M03/M09 A3024 RMK A01 T10331093  RH  063%=      5-min Rain = 0
KVP1 121519Z 19009KT M03/M09 A3024 RMK A01 T10311091  RH  063%=      5-min Rain = 0
KVP1 121520Z 18008KT M03/M09 A3023 RMK A01 T10301091  RH  063%=      5-min Rain = 0
KVP1 121521Z 19009KT M03/M09 A3023 RMK A01 T10281091  RH  062%=      5-min Rain = 0
KVP1 121522Z 19008KT M03/M09 A3023 RMK A01 T10281092  RH  061%=      5-min Rain = 0
KVP1 121523Z 19009KT M03/M09 A3023 RMK A01 T10271091  RH  061%=      5-min Rain = 0
KVP1 121524Z 19009KT M03/M09 A3023 RMK A01 T10261092  RH  060%=      5-min Rain = 0
KVP1 121525Z 19009KT M03/M09 A3023 RMK A01 T10261093  RH  060%=      5-min Rain = 0
KVP1 121526Z 19008KT M02/M09 A3023 RMK A01 T10241092  RH  060%=      5-min Rain = 0
KVP1 121527Z 19009KT M02/M09 A3023 RMK A01 T10231092  RH  059%=      5-min Rain = 0
KVP1 121528Z 19009KT M02/M09 A3023 RMK A01 T10221092  RH  058%=      5-min Rain = 0
KVP1 121529Z 19009KT M02/M09 A3024 RMK A01 T10211093  RH  058%=      5-min Rain = 0
KVP1 121530Z 19008KT M02/M09 A3024 RMK A01 T10201091  RH  058%=      5-min Rain = 0
KVP1 121531Z 19010KT M02/M09 A3023 RMK A01 T10181091  RH  057%=      5-min Rain = 0
KVP1 121532Z 19010KT M02/M09 A3023 RMK A01 T10171092  RH  057%=      5-min Rain = 0
KVP1 121533Z 19010KT M02/M09 A3023 RMK A01 T10161092  RH  056%=      5-min Rain = 0
KVP1 121534Z 20009KT M02/M09 A3023 RMK A01 T10151092  RH  056%=      5-min Rain = 0
KVP1 121535Z 20011KT M01/M09 A3023 RMK A01 T10141091  RH  056%=      5-min Rain = 0
KVP1 121536Z 19010KT M01/M09 A3023 RMK A01 T10121091  RH  055%=      5-min Rain = 0
KVP1 121537Z 20011KT M01/M09 A3024 RMK A01 T10121092  RH  054%=      5-min Rain = 0
KVP1 121538Z 20012KT M01/M09 A3024 RMK A01 T10111093  RH  054%=      5-min Rain = 0
KVP1 121539Z 19010KT M01/M09 A3024 RMK A01 T10111093  RH  054%=      5-min Rain = 0
KVP1 121540Z 19007KT M01/M09 A3024 RMK A01 T10121093  RH  054%=      5-min Rain = 0
KVP1 121541Z 17008KT M01/M09 A3024 RMK A01 T10111092  RH  054%=      5-min Rain = 0
KVP1 121542Z 18008KT M01/M09 A3024 RMK A01 T10091091  RH  054%=      5-min Rain = 0
KVP1 121543Z 18008KT M01/M09 A3024 RMK A01 T10081091  RH  053%=      5-min Rain = 0
KVP1 121544Z 18010KT M01/M09 A3024 RMK A01 T10091092  RH  053%=      5-min Rain = 0
KVP1 121545Z 18009KT M01/M09 A3024 RMK A01 T10091093  RH  053%=      5-min Rain = 0
KVP1 121546Z 20010KT M01/M09 A3024 RMK A01 T10101093  RH  053%=      5-min Rain = 0
KVP1 121547Z 19011KT M01/M09 A3024 RMK A01 T10101092  RH  054%=      5-min Rain = 0
KVP1 121548Z 20009KT M01/M09 A3024 RMK A01 T10091091  RH  054%=      5-min Rain = 0
KVP1 121549Z 20011KT M01/M09 A3024 RMK A01 T10081091  RH  053%=      5-min Rain = 0
KVP1 121550Z 20012KT M01/M09 A3024 RMK A01 T10071091  RH  053%=      5-min Rain = 0
KVP1 121551Z 20012KT M01/M09 A3024 RMK A01 T10051090  RH  053%=      5-min Rain = 0
KVP1 121552Z 20013KT M00/M09 A3024 RMK A01 T10041091  RH  052%=      5-min Rain = 0
KVP1 121553Z 19011KT M00/M09 A3024 RMK A01 T10041092  RH  052%=      5-min Rain = 0
KVP1 121554Z 19010KT M00/M09 A3024 RMK A01 T10041091  RH  052%=      5-min Rain = 0
KVP1 121555Z 20010KT M00/M09 A3024 RMK A01 T10021089  RH  052%=      5-min Rain = 0
KVP1 121556Z 20010KT 00/09 A3024 RMK A01 T00-00-89  RH  051%=      5-min Rain = 0
KVP1 121557Z 20008KT 00/09 A3024 RMK A01 T00-00-90  RH  051%=      5-min Rain = 0
KVP1 121558Z 19010KT 00/M09 A3024 RMK A01 T00011089  RH  051%=      5-min Rain = 0
KVP1 121559Z 20010KT 00/M09 A3024 RMK A01 T00011090  RH  050%=      5-min Rain = 0
KVP1 121600Z 19010KT 00/M09 A3024 RMK A01 T00011090  RH  051%=      5-min Rain = 0
KVP1 121601Z 19009KT 00/M09 A3024 RMK A01 T00021089  RH  050%=      5-min Rain = 0
KVP1 121602Z 20010KT 00/M09 A3024 RMK A01 T00041088  RH  050%=      5-min Rain = 0
KVP1 121603Z 19010KT 00/M09 A3024 RMK A01 T00041088  RH  050%=      5-min Rain = 0
KVP1 121604Z 18011KT 01/M09 A3024 RMK A01 T00061086  RH  050%=      5-min Rain = 0
KVP1 121605Z 19011KT 01/M09 A3024 RMK A01 T00071088  RH  049%=      5-min Rain = 0
KVP1 121606Z 19010KT 01/M09 A3024 RMK A01 T00071088  RH  049%=      5-min Rain = 0
KVP1 121607Z 19009KT 01/M09 A3024 RMK A01 T00091087  RH  049%=      5-min Rain = 0
KVP1 121608Z 19010KT 01/M09 A3024 RMK A01 T00091087  RH  048%=      5-min Rain = 0
KVP1 121609Z 19011KT 01/M09 A3024 RMK A01 T00101088  RH  048%=      5-min Rain = 0
KVP1 121610Z 19012KT 01/M09 A3024 RMK A01 T00081089  RH  048%=      5-min Rain = 0
KVP1 121611Z 19011KT 01/M09 A3024 RMK A01 T00081089  RH  048%=      5-min Rain = 0
KVP1 121612Z 19013KT 01/M09 A3024 RMK A01 T00091088  RH  048%=      5-min Rain = 0
KVP1 121613Z 18013KT 01/M09 A3024 RMK A01 T00101088  RH  048%=      5-min Rain = 0
KVP1 121614Z 18013KT 01/M09 A3024 RMK A01 T00101089  RH  047%=      5-min Rain = 0
KVP1 121615Z 18014KT 01/M09 A3024 RMK A01 T00091091  RH  047%=      5-min Rain = 0
KVP1 121616Z 18013KT 01/M09 A3024 RMK A01 T00091091  RH  047%=      5-min Rain = 0
KVP1 121617Z 18012KT 01/M09 A3024 RMK A01 T00091091  RH  047%=      5-min Rain = 0
KVP1 121618Z 18012KT 01/M09 A3024 RMK A01 T00081091  RH  047%=      5-min Rain = 0
KVP1 121619Z 18014KT 01/M09 A3024 RMK A01 T00091091  RH  047%=      5-min Rain = 0
KVP1 121620Z 19014KT 01/M09 A3024 RMK A01 T00091092  RH  047%=      5-min Rain = 0
KVP1 121621Z 19013KT 01/M09 A3024 RMK A01 T00091092  RH  047%=      5-min Rain = 0
KVP1 121622Z 19013KT 01/M09 A3024 RMK A01 T00101091  RH  047%=      5-min Rain = 0
KVP1 121623Z 19012KT 01/M09 A3024 RMK A01 T00111091  RH  047%=      5-min Rain = 0
KVP1 121624Z 19014KT 01/M09 A3024 RMK A01 T00131090  RH  046%=      5-min Rain = 0
KVP1 121625Z 19013KT 01/M09 A3024 RMK A01 T00141090  RH  046%=      5-min Rain = 0
KVP1 121626Z 18012KT 02/M09 A3024 RMK A01 T00151089  RH  046%=      5-min Rain = 0
KVP1 121627Z 18013KT 02/M09 A3024 RMK A01 T00161089  RH  045%=      5-min Rain = 0
KVP1 121628Z 18012KT 02/M09 A3024 RMK A01 T00171090  RH  045%=      5-min Rain = 0
KVP1 121629Z 17012KT 02/M09 A3024 RMK A01 T00161091  RH  045%=      5-min Rain = 0
KVP1 121630Z 17012KT 02/M09 A3024 RMK A01 T00171091  RH  045%=      5-min Rain = 0
KVP1 121631Z 19011KT 02/M09 A3024 RMK A01 T00181090  RH  044%=      5-min Rain = 0
KVP1 121632Z 18011KT 02/M09 A3024 RMK A01 T00191090  RH  044%=      5-min Rain = 0
KVP1 121633Z 18012KT 02/M09 A3024 RMK A01 T00201090  RH  044%=      5-min Rain = 0
KVP1 121634Z 18009KT 02/M09 A3024 RMK A01 T00201091  RH  044%=      5-min Rain = 0
KVP1 121635Z 18012KT 02/M09 A3024 RMK A01 T00221089  RH  044%=      5-min Rain = 0
KVP1 121636Z 18010KT 02/M09 A3024 RMK A01 T00221090  RH  043%=      5-min Rain = 0
KVP1 121637Z 17011KT 02/M09 A3024 RMK A01 T00221090  RH  043%=      5-min Rain = 0
KVP1 121638Z 18009KT 02/M09 A3023 RMK A01 T00221090  RH  043%=      5-min Rain = 0
KVP1 121639Z 18011KT 02/M09 A3023 RMK A01 T00221089  RH  043%=      5-min Rain = 0
KVP1 121640Z 18012KT 02/M09 A3023 RMK A01 T00231090  RH  043%=      5-min Rain = 0
KVP1 121641Z 18012KT 02/M09 A3023 RMK A01 T00231090  RH  043%=      5-min Rain = 0
KVP1 121642Z 18011KT 02/M09 A3023 RMK A01 T00241090  RH  043%=      5-min Rain = 0
KVP1 121643Z 18013KT 03/M09 A3023 RMK A01 T00251090  RH  042%=      5-min Rain = 0
KVP1 121644Z 18012KT 03/M09 A3023 RMK A01 T00261091  RH  042%=      5-min Rain = 0
KVP1 121645Z 17013KT 03/M09 A3023 RMK A01 T00261091  RH  042%=      5-min Rain = 0
KVP1 121646Z 18011KT 03/M09 A3023 RMK A01 T00281091  RH  041%=      5-min Rain = 0
KVP1 121647Z 18010KT 03/M09 A3024 RMK A01 T00291091  RH  041%=      5-min Rain = 0
KVP1 121648Z 17014KT 03/M09 A3024 RMK A01 T00301091  RH  041%=      5-min Rain = 0
KVP1 121649Z 18014KT 03/M09 A3024 RMK A01 T00291092  RH  040%=      5-min Rain = 0
KVP1 121650Z 18015KT 03/M09 A3024 RMK A01 T00291094  RH  040%=      5-min Rain = 0
KVP1 121651Z 18013KT 03/M10 A3024 RMK A01 T00271095  RH  040%=      5-min Rain = 0
KVP1 121652Z 20011KT 03/M09 A3023 RMK A01 T00261094  RH  041%=      5-min Rain = 0
KVP1 121653Z 20014KT 03/M09 A3023 RMK A01 T00271093  RH  041%=      5-min Rain = 0
KVP1 121654Z 18012KT 03/M09 A3023 RMK A01 T00281093  RH  041%=      5-min Rain = 0
KVP1 121655Z 19013KT 03/M09 A3023 RMK A01 T00291092  RH  041%=      5-min Rain = 0
KVP1 121656Z 19013KT 03/M09 A3023 RMK A01 T00301091  RH  041%=      5-min Rain = 0
KVP1 121657Z 18016KT 03/M09 A3023 RMK A01 T00311093  RH  040%=      5-min Rain = 0
KVP1 121658Z 18014G19KT 03/M10 A3023 RMK A01 T00311095  RH  039%=      5-min Rain = 0
KVP1 121659Z 19014KT 03/M09 A3023 RMK A01 T00321094  RH  039%=      5-min Rain = 0
KVP1 121700Z 18012KT 03/M10 A3023 RMK A01 T00321095  RH  039%=      5-min Rain = 0
KVP1 121701Z 18015KT 03/M09 A3023 RMK A01 T00331093  RH  039%=      5-min Rain = 0
KVP1 121702Z 18013KT 03/M10 A3023 RMK A01 T00341096  RH  038%=      5-min Rain = 0
KVP1 121703Z 18013KT 04/M10 A3023 RMK A01 T00351095  RH  038%=      5-min Rain = 0
KVP1 121704Z 20014KT 04/M09 A3023 RMK A01 T00361094  RH  038%=      5-min Rain = 0
KVP1 121705Z 18016KT 04/M10 A3023 RMK A01 T00361096  RH  037%=      5-min Rain = 0
KVP1 121706Z 18013KT 04/M10 A3023 RMK A01 T00361098  RH  037%=      5-min Rain = 0
KVP1 121707Z 19013KT 04/M10 A3023 RMK A01 T00381097  RH  037%=      5-min Rain = 0
KVP1 121708Z 19013KT 04/M10 A3023 RMK A01 T00371097  RH  037%=      5-min Rain = 0
KVP1 121709Z 19013KT 04/M10 A3023 RMK A01 T00381096  RH  037%=      5-min Rain = 0
KVP1 121710Z 19014KT 04/M10 A3023 RMK A01 T00411097  RH  036%=      5-min Rain = 0
KVP1 121711Z 19015KT 04/M10 A3023 RMK A01 T00411101  RH  035%=      5-min Rain = 0
KVP1 121712Z 18014KT 04/M10 A3023 RMK A01 T00401101  RH  035%=      5-min Rain = 0
KVP1 121713Z 19014G20KT 04/M10 A3023 RMK A01 T00401098  RH  036%=      5-min Rain = 0
KVP1 121714Z 19016KT 04/M10 A3023 RMK A01 T00411100  RH  035%=      5-min Rain = 0
KVP1 121715Z 19014KT 04/M10 A3022 RMK A01 T00421102  RH  034%=      5-min Rain = 0
KVP1 121716Z 18013KT 04/M10 A3022 RMK A01 T00421101  RH  035%=      5-min Rain = 0
KVP1 121717Z 19016KT 04/M10 A3022 RMK A01 T00431099  RH  035%=      5-min Rain = 0
KVP1 121718Z 18017KT 04/M10 A3022 RMK A01 T00441102  RH  034%=      5-min Rain = 0
KVP1 121719Z 17017KT 04/M11 A3022 RMK A01 T00421106  RH  033%=      5-min Rain = 0
KVP1 121720Z 17017KT 04/M11 A3022 RMK A01 T00411106  RH  033%=      5-min Rain = 0
KVP1 121721Z 18015KT 04/M11 A3022 RMK A01 T00401107  RH  033%=      5-min Rain = 0
KVP1 121722Z 18015KT 04/M11 A3022 RMK A01 T00411106  RH  033%=      5-min Rain = 0
KVP1 121723Z 18012KT 04/M11 A3022 RMK A01 T00421105  RH  034%=      5-min Rain = 0
KVP1 121724Z 19016KT 05/M10 A3022 RMK A01 T00451102  RH  034%=      5-min Rain = 0
KVP1 121725Z 19015KT 05/M10 A3022 RMK A01 T00451104  RH  033%=      5-min Rain = 0
KVP1 121726Z 18015KT 04/M10 A3021 RMK A01 T00441104  RH  033%=      5-min Rain = 0
KVP1 121727Z 18015KT 04/M10 A3021 RMK A01 T00441104  RH  033%=      5-min Rain = 0
KVP1 121728Z 18017KT 05/M10 A3021 RMK A01 T00461103  RH  033%=      5-min Rain = 0
KVP1 121729Z 19017KT 04/M10 A3021 RMK A01 T00441104  RH  033%=      5-min Rain = 0
KVP1 121730Z 19016KT 05/M10 A3021 RMK A01 T00461103  RH  033%=      5-min Rain = 0
KVP1 121731Z 20013KT 05/M10 A3021 RMK A01 T00461103  RH  033%=      5-min Rain = 0
KVP1 121732Z 20016KT 05/M10 A3021 RMK A01 T00461103  RH  033%=      5-min Rain = 0
KVP1 121733Z 19016KT 05/M10 A3021 RMK A01 T00461104  RH  033%=      5-min Rain = 0
KVP1 121734Z 18015KT 05/M10 A3021 RMK A01 T00471104  RH  033%=      5-min Rain = 0
KVP1 121735Z 17014KT 05/M11 A3021 RMK A01 T00481105  RH  032%=      5-min Rain = 0
KVP1 121736Z 17018KT 05/M11 A3021 RMK A01 T00481107  RH  032%=      5-min Rain = 0
KVP1 121737Z 17014KT 05/M11 A3021 RMK A01 T00481111  RH  031%=      5-min Rain = 0
KVP1 121738Z 17016KT 05/M11 A3021 RMK A01 T00481110  RH  031%=      5-min Rain = 0
KVP1 121739Z 19016KT 05/M11 A302 RMK A01 T00481108  RH  031%=      5-min Rain = 0
KVP1 121740Z 18018KT 05/M11 A302 RMK A01 T00501109  RH  031%=      5-min Rain = 0
KVP1 121741Z 17017KT 05/M11 A302 RMK A01 T00491111  RH  030%=      5-min Rain = 0
KVP1 121742Z 17015KT 05/M11 A302 RMK A01 T00481113  RH  030%=      5-min Rain = 0
KVP1 121743Z 17015KT 05/M11 A302 RMK A01 T00481111  RH  031%=      5-min Rain = 0
KVP1 121744Z 17016KT 05/M11 A302 RMK A01 T00501108  RH  031%=      5-min Rain = 0
KVP1 121745Z 17016KT 05/M11 A302 RMK A01 T00511111  RH  030%=      5-min Rain = 0
KVP1 121746Z 17016G21KT 05/M11 A302 RMK A01 T00521110  RH  030%=      5-min Rain = 0
KVP1 121747Z 17018KT 05/M11 A3019 RMK A01 T00541111  RH  029%=      5-min Rain = 0
KVP1 121748Z 17014KT 05/M11 A3019 RMK A01 T00531112  RH  029%=      5-min Rain = 0
KVP1 121749Z 18016KT 05/M11 A3019 RMK A01 T00521111  RH  030%=      5-min Rain = 0
KVP1 121750Z 18013KT 05/M11 A3019 RMK A01 T00501113  RH  030%=      5-min Rain = 0
KVP1 121751Z 17016G21KT 05/M11 A3019 RMK A01 T00511110  RH  030%=      5-min Rain = 0
KVP1 121752Z 18018KT 05/M11 A3019 RMK A01 T00541111  RH  029%=      5-min Rain = 0
KVP1 121753Z 18016KT 05/M11 A3019 RMK A01 T00541112  RH  029%=      5-min Rain = 0
KVP1 121754Z 17016KT 05/M11 A3019 RMK A01 T00531112  RH  029%=      5-min Rain = 0
KVP1 121755Z 18017KT 05/M11 A3019 RMK A01 T00541112  RH  029%=      5-min Rain = 0
KVP1 121756Z 17015KT 05/M11 A3019 RMK A01 T00531113  RH  029%=      5-min Rain = 0
KVP1 121757Z 17018KT 06/M11 A3019 RMK A01 T00561111  RH  029%=      5-min Rain = 0
KVP1 121758Z 18018KT 06/M11 A3018 RMK A01 T00561114  RH  028%=      5-min Rain = 0
KVP1 121759Z 17016KT 05/M11 A3018 RMK A01 T00541114  RH  029%=      5-min Rain = 0
KVP1 121800Z 17014KT 05/M11 A3018 RMK A01 T00521113  RH  029%=      5-min Rain = 0
KVP1 121801Z 18015KT 05/M11 A3018 RMK A01 T00541110  RH  029%=      5-min Rain = 0
KVP1 121802Z 18018KT 06/M11 A3018 RMK A01 T00571110  RH  029%=      5-min Rain = 0
KVP1 121803Z 18017KT 06/M11 A3018 RMK A01 T00551113  RH  029%=      5-min Rain = 0
KVP1 121804Z 17017KT 05/M11 A3018 RMK A01 T00531113  RH  029%=      5-min Rain = 0
KVP1 121805Z 19016KT 05/M11 A3018 RMK A01 T00541112  RH  029%=      5-min Rain = 0
KVP1 121806Z 17014KT 06/M11 A3018 RMK A01 T00551112  RH  029%=      5-min Rain = 0
KVP1 121807Z 16018KT 06/M11 A3018 RMK A01 T00561111  RH  029%=      5-min Rain = 0
KVP1 121808Z 17019KT 06/M11 A3017 RMK A01 T00591110  RH  028%=      5-min Rain = 0
KVP1 121809Z 17015KT 06/M11 A3017 RMK A01 T00581114  RH  028%=      5-min Rain = 0
KVP1 121810Z 17020KT 06/M11 A3018 RMK A01 T00581114  RH  028%=      5-min Rain = 0
KVP1 121811Z 17016G21KT 06/M12 A3018 RMK A01 T00581115  RH  028%=      5-min Rain = 0
KVP1 121812Z 17019G25KT 06/M12 A3017 RMK A01 T00581116  RH  028%=      5-min Rain = 0
KVP1 121813Z 18021KT 06/M12 A3017 RMK A01 T00571115  RH  028%=      5-min Rain = 0
KVP1 121814Z 17019KT 06/M12 A3017 RMK A01 T00571115  RH  028%=      5-min Rain = 0
KVP1 121815Z 17017KT 06/M12 A3017 RMK A01 T00561115  RH  028%=      5-min Rain = 0
KVP1 121816Z 18013KT 06/M11 A3017 RMK A01 T00581111  RH  028%=      5-min Rain = 0
KVP1 121817Z 17014KT 06/M11 A3017 RMK A01 T00631108  RH  028%=      5-min Rain = 0
KVP1 121818Z 18013G21KT 07/M11 A3017 RMK A01 T00661108  RH  028%=      5-min Rain = 0
KVP1 121819Z 18016KT 07/M11 A3017 RMK A01 T00671110  RH  027%=      5-min Rain = 0
KVP1 121820Z 19015G20KT 07/M11 A3017 RMK A01 T00651112  RH  027%=      5-min Rain = 0
KVP1 121821Z 19016KT 06/M11 A3017 RMK A01 T00641112  RH  027%=      5-min Rain = 0
KVP1 121822Z 18017G22KT 06/M11 A3017 RMK A01 T00631113  RH  027%=      5-min Rain = 0
KVP1 121823Z 17018KT 06/M11 A3017 RMK A01 T00631113  RH  027%=      5-min Rain = 0
KVP1 121824Z 18019KT 07/M11 A3017 RMK A01 T00651113  RH  027%=      5-min Rain = 0
KVP1 121825Z 18018KT 06/M11 A3017 RMK A01 T00631113  RH  027%=      5-min Rain = 0
KVP1 121826Z 18017G22KT 06/M11 A3017 RMK A01 T00631112  RH  027%=      5-min Rain = 0
KVP1 121827Z 19018KT 06/M11 A3017 RMK A01 T00631112  RH  027%=      5-min Rain = 0
KVP1 121828Z 19015KT 06/M11 A3017 RMK A01 T00621113  RH  027%=      5-min Rain = 0
KVP1 121829Z 18017KT 06/M11 A3017 RMK A01 T00621112  RH  028%=      5-min Rain = 0
KVP1 121830Z 18013KT 06/M11 A3016 RMK A01 T00611113  RH  028%=      5-min Rain = 0
KVP1 121831Z 16016G22KT 06/M11 A3017 RMK A01 T00621109  RH  028%=      5-min Rain = 0
KVP1 121832Z 18014G19KT 07/M11 A3017 RMK A01 T00671107  RH  028%=      5-min Rain = 0
KVP1 121833Z 18016KT 07/M11 A3016 RMK A01 T00691109  RH  027%=      5-min Rain = 0
KVP1 121834Z 18018KT 07/M11 A3016 RMK A01 T00671111  RH  027%=      5-min Rain = 0
KVP1 121835Z 18014KT 06/M11 A3016 RMK A01 T00641112  RH  027%=      5-min Rain = 0
KVP1 121836Z 18014KT 06/M11 A3016 RMK A01 T00631111  RH  027%=      5-min Rain = 0
KVP1 121837Z 18018KT 06/M11 A3016 RMK A01 T00641111  RH  027%=      5-min Rain = 0
KVP1 121838Z 18019KT 07/M11 A3016 RMK A01 T00651111  RH  027%=      5-min Rain = 0
KVP1 121839Z 17017KT 07/M11 A3016 RMK A01 T00651112  RH  027%=      5-min Rain = 0
KVP1 121840Z 17015KT 07/M11 A3016 RMK A01 T00661112  RH  027%=      5-min Rain = 0
KVP1 121841Z 18019KT 07/M11 A3016 RMK A01 T00681110  RH  027%=      5-min Rain = 0
KVP1 121842Z 19016KT 07/M11 A3015 RMK A01 T00671113  RH  026%=      5-min Rain = 0
KVP1 121843Z 18019KT 07/M11 A3015 RMK A01 T00661113  RH  027%=      5-min Rain = 0
KVP1 121844Z 18015KT 07/M11 A3015 RMK A01 T00651113  RH  027%=      5-min Rain = 0
KVP1 121845Z 17016KT 07/M11 A3015 RMK A01 T00651112  RH  027%=      5-min Rain = 0
KVP1 121846Z 17014KT 07/M11 A3015 RMK A01 T00671111  RH  027%=      5-min Rain = 0
KVP1 121847Z 18015KT 07/M11 A3015 RMK A01 T00691109  RH  027%=      5-min Rain = 0
KVP1 121848Z 18017KT 07/M11 A3015 RMK A01 T00701110  RH  026%=      5-min Rain = 0
KVP1 121849Z 17016G21KT 07/M11 A3015 RMK A01 T00671113  RH  026%=      5-min Rain = 0
KVP1 121850Z 17015KT 07/M11 A3015 RMK A01 T00681112  RH  026%=      5-min Rain = 0
KVP1 121851Z 19012G17KT 07/M11 A3015 RMK A01 T00691112  RH  026%=      5-min Rain = 0
KVP1 121852Z 18014KT 07/M11 A3015 RMK A01 T00721109  RH  026%=      5-min Rain = 0
KVP1 121853Z 17019KT 08/M11 A3015 RMK A01 T00761108  RH  026%=      5-min Rain = 0
KVP1 121854Z 18014G19KT 07/M11 A3015 RMK A01 T00721113  RH  025%=      5-min Rain = 0
KVP1 121855Z 17015KT 07/M11 A3015 RMK A01 T00711112  RH  026%=      5-min Rain = 0
KVP1 121856Z 17018G24KT 07/M11 A3015 RMK A01 T00711112  RH  026%=      5-min Rain = 0
KVP1 121857Z 17019G24KT 07/M11 A3015 RMK A01 T00701113  RH  026%=      5-min Rain = 0
KVP1 121858Z 18017G22KT 07/M11 A3015 RMK A01 T00681112  RH  026%=      5-min Rain = 0
KVP1 121859Z 19018KT 07/M11 A3015 RMK A01 T00701109  RH  026%=      5-min Rain = 0
KVP1 121900Z 19015KT 07/M11 A3015 RMK A01 T00701111  RH  026%=      5-min Rain = 0
KVP1 121901Z 19015G21KT 07/M11 A3015 RMK A01 T00691111  RH  026%=      5-min Rain = 0
KVP1 121902Z 18016KT 07/M11 A3015 RMK A01 T00691110  RH  027%=      5-min Rain = 0
KVP1 121903Z 18018KT 07/M11 A3015 RMK A01 T00711109  RH  026%=      5-min Rain = 0
KVP1 121904Z 18015KT 07/M11 A3015 RMK A01 T00721110  RH  026%=      5-min Rain = 0
KVP1 121905Z 18016KT 07/M11 A3015 RMK A01 T00721109  RH  026%=      5-min Rain = 0
KVP1 121906Z 18018KT 07/M11 A3015 RMK A01 T00741108  RH  026%=      5-min Rain = 0
KVP1 121907Z 19016KT 07/M11 A3015 RMK A01 T00731110  RH  026%=      5-min Rain = 0
KVP1 121908Z 19018KT 07/M11 A3015 RMK A01 T00721109  RH  026%=      5-min Rain = 0
KVP1 121909Z 20017G22KT 07/M11 A3014 RMK A01 T00711109  RH  026%=      5-min Rain = 0
KVP1 121910Z 19017KT 07/M11 A3015 RMK A01 T00721108  RH  027%=      5-min Rain = 0
KVP1 121911Z 19014KT 07/M11 A3015 RMK A01 T00741107  RH  026%=      5-min Rain = 0
KVP1 121912Z 19014KT 07/M11 A3014 RMK A01 T00731109  RH  026%=      5-min Rain = 0
KVP1 121913Z 19015G21KT 07/M11 A3014 RMK A01 T00721108  RH  026%=      5-min Rain = 0
KVP1 121914Z 18018KT 07/M11 A3014 RMK A01 T00741106  RH  027%=      5-min Rain = 0
KVP1 121915Z 18016KT 08/M11 A3014 RMK A01 T00751107  RH  026%=      5-min Rain = 0
KVP1 121916Z 19013G19KT 07/M11 A3014 RMK A01 T00731109  RH  026%=      5-min Rain = 0
KVP1 121917Z 19016KT 07/M11 A3014 RMK A01 T00731108  RH  026%=      5-min Rain = 0
KVP1 121918Z 20017KT 08/M11 A3014 RMK A01 T00751106  RH  026%=      5-min Rain = 0
KVP1 121919Z 21016KT 08/M11 A3014 RMK A01 T00751107  RH  026%=      5-min Rain = 0
KVP1 121920Z 20015KT 07/M11 A3014 RMK A01 T00741107  RH  026%=      5-min Rain = 0
KVP1 121921Z 19014KT 08/M11 A3014 RMK A01 T00751108  RH  026%=      5-min Rain = 0
KVP1 121922Z 18018KT 07/M11 A3014 RMK A01 T00741108  RH  026%=      5-min Rain = 0
KVP1 121923Z 19017KT 07/M11 A3014 RMK A01 T00741108  RH  026%=      5-min Rain = 0
KVP1 121924Z 19013KT 07/M11 A3014 RMK A01 T00721110  RH  026%=      5-min Rain = 0
KVP1 121925Z 19013KT 07/M11 A3014 RMK A01 T00741107  RH  026%=      5-min Rain = 0
KVP1 121926Z 19015KT 08/M11 A3014 RMK A01 T00771107  RH  026%=      5-min Rain = 0
KVP1 121927Z 19014G19KT 08/M11 A3014 RMK A01 T00771108  RH  026%=      5-min Rain = 0
KVP1 121928Z 21013KT 08/M11 A3014 RMK A01 T00781108  RH  026%=      5-min Rain = 0
KVP1 121929Z 20012KT 08/M11 A3014 RMK A01 T00781108  RH  025%=      5-min Rain = 0
KVP1 121930Z 19012G17KT 08/M11 A3014 RMK A01 T00811105  RH  026%=      5-min Rain = 0
KVP1 121931Z 19015KT 09/M11 A3014 RMK A01 T00851105  RH  025%=      5-min Rain = 0
KVP1 121932Z 20016KT 08/M11 A3014 RMK A01 T00811109  RH  025%=      5-min Rain = 0
KVP1 121933Z 20016KT 08/M11 A3013 RMK A01 T00801108  RH  025%=      5-min Rain = 0
KVP1 121934Z 20014G19KT 08/M11 A3013 RMK A01 T00781109  RH  025%=      5-min Rain = 0
KVP1 121935Z 20017KT 08/M11 A3013 RMK A01 T00781106  RH  026%=      5-min Rain = 0
KVP1 121936Z 20018KT 08/M11 A3014 RMK A01 T00801105  RH  026%=      5-min Rain = 0
KVP1 121937Z 21012KT 08/M11 A3013 RMK A01 T00781107  RH  026%=      5-min Rain = 0
KVP1 121938Z 20013G18KT 08/M11 A3014 RMK A01 T00781106  RH  026%=      5-min Rain = 0
KVP1 121939Z 20019KT 08/M11 A3013 RMK A01 T00801105  RH  026%=      5-min Rain = 0
KVP1 121940Z 20014G19KT 08/M11 A3013 RMK A01 T00801106  RH  025%=      5-min Rain = 0
KVP1 121941Z 20013G19KT 08/M11 A3013 RMK A01 T00791107  RH  026%=      5-min Rain = 0
KVP1 121942Z 19013G19KT 08/M11 A3013 RMK A01 T00781107  RH  026%=      5-min Rain = 0
KVP1 121943Z 19016G21KT 08/M11 A3013 RMK A01 T00791105  RH  026%=      5-min Rain = 0
KVP1 121944Z 19015KT 08/M10 A3013 RMK A01 T00811104  RH  026%=      5-min Rain = 0
KVP1 121945Z 18014KT 08/M11 A3013 RMK A01 T00801105  RH  026%=      5-min Rain = 0
KVP1 121946Z 20014KT 08/M11 A3013 RMK A01 T00801106  RH  026%=      5-min Rain = 0
KVP1 121947Z 20016KT 08/M11 A3013 RMK A01 T00811106  RH  025%=      5-min Rain = 0
KVP1 121948Z 19014KT 08/M11 A3013 RMK A01 T00811105  RH  026%=      5-min Rain = 0
KVP1 121949Z 19016KT 08/M11 A3013 RMK A01 T00811105  RH  026%=      5-min Rain = 0
KVP1 121950Z 19016KT 08/M11 A3013 RMK A01 T00801106  RH  025%=      5-min Rain = 0
KVP1 121951Z 19015KT 08/M11 A3013 RMK A01 T00801106  RH  026%=      5-min Rain = 0
KVP1 121952Z 19014KT 08/M10 A3013 RMK A01 T00811104  RH  026%=      5-min Rain = 0
KVP1 121953Z 19017KT 08/M11 A3012 RMK A01 T00811105  RH  026%=      5-min Rain = 0
KVP1 121954Z 18017G22KT 08/M11 A3012 RMK A01 T00801105  RH  026%=      5-min Rain = 0
KVP1 121955Z 18014KT 08/M11 A3013 RMK A01 T00781107  RH  026%=      5-min Rain = 0
KVP1 121956Z 18018KT 08/M11 A3013 RMK A01 T00781105  RH  026%=      5-min Rain = 0
KVP1 121957Z 19015KT 08/M11 A3013 RMK A01 T00801105  RH  026%=      5-min Rain = 0
KVP1 121958Z 19012KT 08/M11 A3013 RMK A01 T00791107  RH  025%=      5-min Rain = 0
KVP1 121959Z 19012G18KT 08/M11 A3013 RMK A01 T00771107  RH  026%=      5-min Rain = 0
KVP1 122000Z 20012G17KT 08/M10 A3013 RMK A01 T00781104  RH  026%=      5-min Rain = 0
KVP1 122001Z 19012KT 08/M10 A3013 RMK A01 T00791104  RH  026%=      5-min Rain = 0
KVP1 122002Z 20013KT 08/M10 A3013 RMK A01 T00811103  RH  026%=      5-min Rain = 0
KVP1 122003Z 19015G20KT 08/M10 A3013 RMK A01 T00841102  RH  026%=      5-min Rain = 0
KVP1 122004Z 18014G19KT 08/M10 A3013 RMK A01 T00841104  RH  025%=      5-min Rain = 0
KVP1 122005Z 18015KT 08/M11 A3013 RMK A01 T00831105  RH  025%=      5-min Rain = 0
KVP1 122006Z 19014G19KT 08/M11 A3013 RMK A01 T00811105  RH  026%=      5-min Rain = 0
KVP1 122007Z 20015KT 08/M10 A3013 RMK A01 T00821103  RH  026%=      5-min Rain = 0
KVP1 122008Z 22014KT 08/M10 A3013 RMK A01 T00811104  RH  026%=      5-min Rain = 0
KVP1 122009Z 20011KT 08/M10 A3013 RMK A01 T00821104  RH  026%=      5-min Rain = 0
KVP1 122010Z 20012KT 08/M10 A3013 RMK A01 T00821103  RH  026%=      5-min Rain = 0
KVP1 122011Z 20017KT 09/M10 A3013 RMK A01 T00851101  RH  026%=      5-min Rain = 0
KVP1 122012Z 19012KT 09/M10 A3013 RMK A01 T00851102  RH  025%=      5-min Rain = 0
KVP1 122013Z 18013KT 08/M10 A3013 RMK A01 T00831103  RH  025%=      5-min Rain = 0
KVP1 122014Z 18012KT 08/M10 A3013 RMK A01 T00831103  RH  026%=      5-min Rain = 0
KVP1 122015Z 20012KT 09/M10 A3013 RMK A01 T00851101  RH  026%=      5-min Rain = 0
KVP1 122016Z 21012KT 09/M10 A3013 RMK A01 T00881099  RH  025%=      5-min Rain = 0
KVP1 122017Z 20013KT 09/M10 A3013 RMK A01 T00921098  RH  025%=      5-min Rain = 0
KVP1 122018Z 20011KT 09/M10 A3013 RMK A01 T00901102  RH  025%=      5-min Rain = 0
KVP1 122019Z 20012KT 09/M10 A3012 RMK A01 T00861103  RH  025%=      5-min Rain = 0
KVP1 122020Z 19014KT 09/M10 A3012 RMK A01 T00871100  RH  025%=      5-min Rain = 0
KVP1 122021Z 19017KT 09/M10 A3012 RMK A01 T00901099  RH  025%=      5-min Rain = 0
KVP1 122022Z 19015G20KT 09/M10 A3012 RMK A01 T00891102  RH  025%=      5-min Rain = 0
KVP1 122023Z 21010KT 09/M10 A3012 RMK A01 T00851103  RH  025%=      5-min Rain = 0
KVP1 122024Z 19011G17KT 08/M10 A3012 RMK A01 T00841102  RH  026%=      5-min Rain = 0
KVP1 122025Z 18014G21KT 09/M10 A3012 RMK A01 T00861100  RH  026%=      5-min Rain = 0
KVP1 122026Z 18013KT 09/M10 A3012 RMK A01 T00881101  RH  025%=      5-min Rain = 0
KVP1 122027Z 19016KT 09/M10 A3012 RMK A01 T00881101  RH  025%=      5-min Rain = 0
KVP1 122028Z 20012G17KT 09/M10 A3012 RMK A01 T00881101  RH  025%=      5-min Rain = 0
KVP1 122029Z 18014KT 09/M10 A3012 RMK A01 T00891101  RH  025%=      5-min Rain = 0
KVP1 122030Z 18013KT 09/M10 A3012 RMK A01 T00871102  RH  025%=      5-min Rain = 0
KVP1 122031Z 19014KT 09/M10 A3012 RMK A01 T00851102  RH  026%=      5-min Rain = 0
KVP1 122032Z 19013KT 09/M10 A3012 RMK A01 T00851101  RH  026%=      5-min Rain = 0
KVP1 122033Z 18015G20KT 09/M10 A3012 RMK A01 T00851101  RH  026%=      5-min Rain = 0
KVP1 122034Z 19016KT 09/M10 A3012 RMK A01 T00881100  RH  025%=      5-min Rain = 0
KVP1 122035Z 18015KT 09/M10 A3012 RMK A01 T00871101  RH  025%=      5-min Rain = 0
KVP1 122036Z 18013KT 09/M10 A3012 RMK A01 T00871101  RH  025%=      5-min Rain = 0
KVP1 122037Z 19013KT 09/M10 A3012 RMK A01 T00861102  RH  025%=      5-min Rain = 0
KVP1 122038Z 20014KT 09/M10 A3012 RMK A01 T00861101  RH  026%=      5-min Rain = 0
KVP1 122039Z 19014KT 09/M10 A3012 RMK A01 T00861101  RH  025%=      5-min Rain = 0
KVP1 122040Z 18015KT 09/M10 A3012 RMK A01 T00871101  RH  025%=      5-min Rain = 0
KVP1 122041Z 18012KT 09/M10 A3012 RMK A01 T00881100  RH  025%=      5-min Rain = 0
KVP1 122042Z 18013KT 09/M10 A3012 RMK A01 T00871102  RH  025%=      5-min Rain = 0
KVP1 122043Z 17012KT 09/M10 A3012 RMK A01 T00851102  RH  025%=      5-min Rain = 0
KVP1 122044Z 18013KT 09/M10 A3012 RMK A01 T00851102  RH  026%=      5-min Rain = 0
KVP1 122045Z 16014G20KT 09/M10 A3012 RMK A01 T00861101  RH  026%=      5-min Rain = 0
KVP1 122046Z 18016KT 09/M10 A3012 RMK A01 T00881100  RH  025%=      5-min Rain = 0
KVP1 122047Z 17013KT 09/M10 A3012 RMK A01 T00861102  RH  025%=      5-min Rain = 0
KVP1 122048Z 18011KT 09/M10 A3012 RMK A01 T00851103  RH  025%=      5-min Rain = 0
KVP1 122049Z 18015KT 09/M10 A3012 RMK A01 T00851102  RH  026%=      5-min Rain = 0
KVP1 122050Z 19014KT 09/M10 A3012 RMK A01 T00851102  RH  025%=      5-min Rain = 0
KVP1 122051Z 19015KT 09/M10 A3012 RMK A01 T00851101  RH  026%=      5-min Rain = 0
KVP1 122052Z 18015KT 09/M10 A3012 RMK A01 T00871100  RH  025%=      5-min Rain = 0
KVP1 122053Z 17014KT 09/M10 A3012 RMK A01 T00871101  RH  025%=      5-min Rain = 0
KVP1 122054Z 18012KT 09/M10 A3012 RMK A01 T00861102  RH  025%=      5-min Rain = 0
KVP1 122055Z 18015KT 09/M10 A3012 RMK A01 T00871100  RH  026%=      5-min Rain = 0
KVP1 122056Z 18013KT 09/M10 A3012 RMK A01 T00881101  RH  025%=      5-min Rain = 0
KVP1 122057Z 18011KT 09/M10 A3012 RMK A01 T00871101  RH  025%=      5-min Rain = 0
KVP1 122058Z 19012G17KT 09/M10 A3012 RMK A01 T00901097  RH  025%=      5-min Rain = 0
KVP1 122059Z 17014G20KT 09/M10 A3012 RMK A01 T00931099  RH  025%=      5-min Rain = 0
KVP1 122100Z 18014KT 09/M10 A3012 RMK A01 T00901102  RH  025%=      5-min Rain = 0
KVP1 122101Z 19012KT 09/M10 A3012 RMK A01 T00881102  RH  025%=      5-min Rain = 0
KVP1 122102Z 18011KT 09/M10 A3012 RMK A01 T00881100  RH  025%=      5-min Rain = 0
KVP1 122103Z 20015KT 09/M10 A3012 RMK A01 T00901100  RH  025%=      5-min Rain = 0
KVP1 122104Z 19013KT 09/M10 A3012 RMK A01 T00901101  RH  025%=      5-min Rain = 0
KVP1 122105Z 19013KT 09/M10 A3012 RMK A01 T00901100  RH  025%=      5-min Rain = 0
KVP1 122106Z 19015KT 09/M10 A3012 RMK A01 T00901100  RH  025%=      5-min Rain = 0
KVP1 122107Z 19013KT 09/M10 A3012 RMK A01 T00901101  RH  025%=      5-min Rain = 0
KVP1 122108Z 17013KT 09/M10 A3012 RMK A01 T00911101  RH  025%=      5-min Rain = 0
KVP1 122109Z 18012KT 09/M10 A3012 RMK A01 T00911101  RH  025%=      5-min Rain = 0
KVP1 122110Z 16011KT 09/M10 A3012 RMK A01 T00911100  RH  025%=      5-min Rain = 0
KVP1 122111Z 17010KT 09/M10 A3012 RMK A01 T00911100  RH  025%=      5-min Rain = 0
KVP1 122112Z 18012KT 09/M10 A3012 RMK A01 T00921099  RH  025%=      5-min Rain = 0
KVP1 122113Z 18013G18KT 10/M10 A3012 RMK A01 T00961098  RH  024%=      5-min Rain = 0
KVP1 122114Z 17013KT 10/M10 A3012 RMK A01 T00951101  RH  024%=      5-min Rain = 0
KVP1 122115Z 18012KT 09/M10 A3012 RMK A01 T00931102  RH  024%=      5-min Rain = 0
KVP1 122116Z 18009KT 09/M10 A3012 RMK A01 T00911101  RH  025%=      5-min Rain = 0
KVP1 122117Z 19012KT 09/M10 A3012 RMK A01 T00921100  RH  025%=      5-min Rain = 0
KVP1 122118Z 19010KT 09/M10 A3012 RMK A01 T00921101  RH  024%=      5-min Rain = 0
KVP1 122119Z 17010KT 09/M10 A3012 RMK A01 T00921100  RH  025%=      5-min Rain = 0
KVP1 122120Z 18013KT 09/M10 A3012 RMK A01 T00941100  RH  024%=      5-min Rain = 0
KVP1 122121Z 18011KT 09/M10 A3012 RMK A01 T00931101  RH  024%=      5-min Rain = 0
KVP1 122122Z 17012KT 09/M10 A3012 RMK A01 T00911101  RH  025%=      5-min Rain = 0
KVP1 122123Z 17013KT 09/M10 A3012 RMK A01 T00911101  RH  025%=      5-min Rain = 0
KVP1 122124Z 15014KT 09/M10 A3012 RMK A01 T00931099  RH  025%=      5-min Rain = 0
KVP1 122125Z 16013KT 10/M10 A3012 RMK A01 T00951100  RH  024%=      5-min Rain = 0
KVP1 122126Z 17012KT 09/M10 A3012 RMK A01 T00941100  RH  024%=      5-min Rain = 0
KVP1 122127Z 18014KT 10/M10 A3012 RMK A01 T00951099  RH  024%=      5-min Rain = 0
KVP1 122128Z 17013KT 10/M10 A3012 RMK A01 T00971098  RH  024%=      5-min Rain = 0
KVP1 122129Z 17012KT 10/M10 A3012 RMK A01 T00981100  RH  024%=      5-min Rain = 0
KVP1 122130Z 18012KT 10/M10 A3012 RMK A01 T00971100  RH  024%=      5-min Rain = 0
KVP1 122131Z 18013KT 10/M10 A3012 RMK A01 T00971100  RH  024%=      5-min Rain = 0
KVP1 122132Z 17012KT 10/M10 A3012 RMK A01 T00961100  RH  024%=      5-min Rain = 0
KVP1 122133Z 16013KT 09/M10 A3012 RMK A01 T00941101  RH  024%=      5-min Rain = 0
KVP1 122134Z 16014KT 09/M10 A3012 RMK A01 T00921103  RH  024%=      5-min Rain = 0
KVP1 122135Z 17014KT 09/M10 A3012 RMK A01 T00901102  RH  025%=      5-min Rain = 0
KVP1 122136Z 18014KT 09/M10 A3012 RMK A01 T00901101  RH  025%=      5-min Rain = 0
KVP1 122137Z 17014KT 09/M10 A3012 RMK A01 T00901101  RH  025%=      5-min Rain = 0
KVP1 122138Z 17012KT 09/M10 A3012 RMK A01 T00891101  RH  025%=      5-min Rain = 0
KVP1 122139Z 18013KT 09/M10 A3012 RMK A01 T00911099  RH  025%=      5-min Rain = 0
KVP1 122140Z 17013KT 09/M10 A3012 RMK A01 T00941099  RH  025%=      5-min Rain = 0
KVP1 122141Z 17010KT 09/M10 A3012 RMK A01 T00941100  RH  024%=      5-min Rain = 0
KVP1 122142Z 17012KT 10/M10 A3012 RMK A01 T00951100  RH  024%=      5-min Rain = 0
KVP1 122143Z 17011KT 09/M10 A3012 RMK A01 T00941101  RH  024%=      5-min Rain = 0
KVP1 122144Z 17012G17KT 09/M10 A3012 RMK A01 T00931101  RH  024%=      5-min Rain = 0
KVP1 122145Z 18014KT 09/M10 A3011 RMK A01 T00921100  RH  025%=      5-min Rain = 0
KVP1 122146Z 18011KT 09/M10 A3012 RMK A01 T00921101  RH  025%=      5-min Rain = 0
KVP1 122147Z 16013KT 09/M10 A3012 RMK A01 T00911100  RH  025%=      5-min Rain = 0
KVP1 122148Z 16011G17KT 09/M10 A3012 RMK A01 T00911100  RH  025%=      5-min Rain = 0
KVP1 122149Z 18012KT 09/M10 A3012 RMK A01 T00921099  RH  025%=      5-min Rain = 0
KVP1 122150Z 18012KT 09/M10 A3012 RMK A01 T00941098  RH  025%=      5-min Rain = 0
KVP1 122151Z 17011KT 10/M10 A3012 RMK A01 T00951099  RH  025%=      5-min Rain = 0
KVP1 122152Z 16012KT 10/M10 A3012 RMK A01 T00961099  RH  024%=      5-min Rain = 0
KVP1 122153Z 17015KT 10/M10 A3012 RMK A01 T00951100  RH  024%=      5-min Rain = 0
KVP1 122154Z 18012KT 10/M10 A3012 RMK A01 T00951099  RH  024%=      5-min Rain = 0
KVP1 122155Z 18016KT 10/M10 A3012 RMK A01 T00951100  RH  024%=      5-min Rain = 0
KVP1 122156Z 18012KT 09/M10 A3012 RMK A01 T00931101  RH  024%=      5-min Rain = 0
KVP1 122157Z 17013KT 09/M10 A3012 RMK A01 T00931099  RH  025%=      5-min Rain = 0
KVP1 122158Z 17014KT 09/M10 A3012 RMK A01 T00931100  RH  024%=      5-min Rain = 0
KVP1 122159Z 17013KT 09/M10 A3012 RMK A01 T00921101  RH  025%=      5-min Rain = 0
KVP1 122200Z 16012KT 09/M10 A3012 RMK A01 T00911101  RH  025%=      5-min Rain = 0
KVP1 122201Z 16014KT 09/M10 A3012 RMK A01 T00911100  RH  025%=      5-min Rain = 0
KVP1 122202Z 16015KT 09/M10 A3012 RMK A01 T00911100  RH  025%=      5-min Rain = 0
KVP1 122203Z 17014KT 09/M10 A3012 RMK A01 T00901101  RH  025%=      5-min Rain = 0
KVP1 122204Z 16013KT 09/M10 A3012 RMK A01 T00901100  RH  025%=      5-min Rain = 0
KVP1 122205Z 16011KT 09/M10 A3012 RMK A01 T00891100  RH  025%=      5-min Rain = 0
KVP1 122206Z 16011KT 09/M10 A3012 RMK A01 T00901099  RH  025%=      5-min Rain = 0
KVP1 122207Z 16013KT 09/M10 A3012 RMK A01 T00911100  RH  025%=      5-min Rain = 0
KVP1 122208Z 17013KT 09/M10 A3012 RMK A01 T00911100  RH  025%=      5-min Rain = 0
KVP1 122209Z 17014KT 09/M10 A3012 RMK A01 T00911099  RH  025%=      5-min Rain = 0
KVP1 122210Z 17013KT 09/M10 A3012 RMK A01 T00911100  RH  025%=      5-min Rain = 0
KVP1 122211Z 16013KT 09/M10 A3012 RMK A01 T00901100  RH  025%=      5-min Rain = 0
KVP1 122212Z 16011KT 09/M10 A3012 RMK A01 T00911100  RH  025%=      5-min Rain = 0
KVP1 122213Z 17010KT 09/M10 A3012 RMK A01 T00901100  RH  025%=      5-min Rain = 0
KVP1 122214Z 15012KT 09/M10 A3012 RMK A01 T00911099  RH  025%=      5-min Rain = 0
KVP1 122215Z 15010G15KT 09/M10 A3012 RMK A01 T00921100  RH  025%=      5-min Rain = 0
KVP1 122216Z 16013KT 09/M10 A3012 RMK A01 T00931099  RH  025%=      5-min Rain = 0
KVP1 122217Z 18012KT 09/M10 A3013 RMK A01 T00931099  RH  025%=      5-min Rain = 0
KVP1 122218Z 17011KT 09/M10 A3013 RMK A01 T00931100  RH  025%=      5-min Rain = 0
KVP1 122219Z 17012KT 09/M10 A3012 RMK A01 T00921099  RH  025%=      5-min Rain = 0
KVP1 122220Z 18013KT 09/M10 A3013 RMK A01 T00921099  RH  025%=      5-min Rain = 0
KVP1 122221Z 17014KT 09/M10 A3013 RMK A01 T00911099  RH  025%=      5-min Rain = 0
KVP1 122222Z 17012KT 09/M10 A3013 RMK A01 T00901100  RH  025%=      5-min Rain = 0
KVP1 122223Z 16011KT 09/M10 A3013 RMK A01 T00901099  RH  025%=      5-min Rain = 0
KVP1 122224Z 15010KT 09/M10 A3013 RMK A01 T00911098  RH  025%=      5-min Rain = 0
KVP1 122225Z 16010KT 09/M10 A3013 RMK A01 T00921098  RH  025%=      5-min Rain = 0
KVP1 122226Z 17011KT 09/M10 A3013 RMK A01 T00921099  RH  025%=      5-min Rain = 0
KVP1 122227Z 17014KT 09/M10 A3013 RMK A01 T00911099  RH  025%=      5-min Rain = 0
KVP1 122228Z 17012KT 09/M10 A3013 RMK A01 T00901100  RH  025%=      5-min Rain = 0
KVP1 122229Z 17012KT 09/M10 A3013 RMK A01 T00891099  RH  025%=      5-min Rain = 0
KVP1 122230Z 16011KT 09/M10 A3013 RMK A01 T00881100  RH  025%=      5-min Rain = 0
KVP1 122231Z 16011KT 09/M10 A3013 RMK A01 T00871100  RH  025%=      5-min Rain = 0
KVP1 122232Z 16011KT 09/M10 A3013 RMK A01 T00861100  RH  026%=      5-min Rain = 0
KVP1 122233Z 16010KT 09/M10 A3013 RMK A01 T00861100  RH  026%=      5-min Rain = 0
KVP1 122234Z 16011KT 09/M10 A3013 RMK A01 T00871099  RH  026%=      5-min Rain = 0
KVP1 122235Z 16011KT 09/M10 A3014 RMK A01 T00871099  RH  026%=      5-min Rain = 0
KVP1 122236Z 16010KT 09/M10 A3014 RMK A01 T00871100  RH  026%=      5-min Rain = 0
KVP1 122237Z 16012KT 09/M10 A3014 RMK A01 T00861100  RH  026%=      5-min Rain = 0
KVP1 122238Z 16011KT 09/M10 A3014 RMK A01 T00851100  RH  026%=      5-min Rain = 0
KVP1 122239Z 15010KT 09/M10 A3014 RMK A01 T00851099  RH  026%=      5-min Rain = 0
KVP1 122240Z 15009KT 09/M10 A3014 RMK A01 T00851099  RH  026%=      5-min Rain = 0
KVP1 122241Z 16012KT 09/M10 A3014 RMK A01 T00851099  RH  026%=      5-min Rain = 0
KVP1 122242Z 15012KT 09/M10 A3014 RMK A01 T00851100  RH  026%=      5-min Rain = 0
KVP1 122243Z 15010KT 09/M10 A3014 RMK A01 T00851100  RH  026%=      5-min Rain = 0
KVP1 122244Z 15010KT 09/M10 A3014 RMK A01 T00861099  RH  026%=      5-min Rain = 0
KVP1 122245Z 16010KT 09/M10 A3014 RMK A01 T00861099  RH  026%=      5-min Rain = 0
KVP1 122246Z 15009KT 09/M10 A3014 RMK A01 T00861099  RH  026%=      5-min Rain = 0
KVP1 122247Z 15008KT 09/M10 A3014 RMK A01 T00871099  RH  026%=      5-min Rain = 0
KVP1 122248Z 14009KT 09/M10 A3015 RMK A01 T00871099  RH  026%=      5-min Rain = 0
KVP1 122249Z 14008KT 09/M10 A3015 RMK A01 T00871099  RH  026%=      5-min Rain = 0
KVP1 122250Z 14011KT 09/M10 A3015 RMK A01 T00871099  RH  026%=      5-min Rain = 0
KVP1 122251Z 14011KT 09/M10 A3015 RMK A01 T00871099  RH  026%=      5-min Rain = 0
KVP1 122252Z 15009KT 09/M10 A3015 RMK A01 T00861099  RH  026%=      5-min Rain = 0
KVP1 122253Z 16011KT 09/M10 A3015 RMK A01 T00861099  RH  026%=      5-min Rain = 0
KVP1 122254Z 15008KT 09/M10 A3015 RMK A01 T00851099  RH  026%=      5-min Rain = 0
KVP1 122255Z 16008KT 08/M10 A3015 RMK A01 T00841099  RH  026%=      5-min Rain = 0
KVP1 122256Z 16010KT 08/M10 A3015 RMK A01 T00841099  RH  026%=      5-min Rain = 0
KVP1 122257Z 16008KT 08/M10 A3015 RMK A01 T00841099  RH  026%=      5-min Rain = 0
KVP1 122258Z 15010KT 08/M10 A3015 RMK A01 T00831099  RH  026%=      5-min Rain = 0
KVP1 122259Z 15010KT 08/M10 A3015 RMK A01 T00821099  RH  027%=      5-min Rain = 0
KVP1 122300Z 15011KT 08/M10 A3015 RMK A01 T00811099  RH  027%=      5-min Rain = 0
KVP1 122301Z 16010KT 08/M10 A3015 RMK A01 T00801099  RH  027%=      5-min Rain = 0
KVP1 122302Z 15008KT 08/M10 A3015 RMK A01 T00781100  RH  027%=      5-min Rain = 0
KVP1 122303Z 15011KT 08/M10 A3015 RMK A01 T00781100  RH  027%=      5-min Rain = 0
KVP1 122304Z 14010KT 08/M10 A3015 RMK A01 T00771099  RH  027%=      5-min Rain = 0
KVP1 122305Z 15010KT 08/M10 A3015 RMK A01 T00771099  RH  027%=      5-min Rain = 0
KVP1 122306Z 14010KT 08/M10 A3015 RMK A01 T00781099  RH  027%=      5-min Rain = 0
KVP1 122307Z 14009KT 08/M10 A3015 RMK A01 T00781099  RH  027%=      5-min Rain = 0
KVP1 122308Z 15009KT 08/M10 A3015 RMK A01 T00791099  RH  027%=      5-min Rain = 0
KVP1 122309Z 15010KT 08/M10 A3015 RMK A01 T00791099  RH  027%=      5-min Rain = 0
KVP1 122310Z 15009KT 08/M10 A3015 RMK A01 T00781099  RH  027%=      5-min Rain = 0
KVP1 122311Z 14009KT 08/M10 A3015 RMK A01 T00771100  RH  027%=      5-min Rain = 0
KVP1 122312Z 14009KT 08/M10 A3015 RMK A01 T00761100  RH  028%=      5-min Rain = 0
KVP1 122313Z 14010KT 08/M10 A3015 RMK A01 T00761099  RH  028%=      5-min Rain = 0
KVP1 122314Z 14010KT 08/M10 A3015 RMK A01 T00761099  RH  028%=      5-min Rain = 0
KVP1 122315Z 14009KT 08/M10 A3015 RMK A01 T00751099  RH  028%=      5-min Rain = 0
KVP1 122316Z 14009KT 08/M10 A3015 RMK A01 T00751100  RH  028%=      5-min Rain = 0
KVP1 122317Z 13008KT 07/M10 A3015 RMK A01 T00741100  RH  028%=      5-min Rain = 0
KVP1 122318Z 14009KT 07/M10 A3015 RMK A01 T00731100  RH  028%=      5-min Rain = 0
KVP1 122319Z 13009KT 07/M10 A3015 RMK A01 T00711100  RH  028%=      5-min Rain = 0
KVP1 122320Z 13009KT 07/M10 A3015 RMK A01 T00701101  RH  028%=      5-min Rain = 0
KVP1 122321Z 13009KT 07/M10 A3015 RMK A01 T00691101  RH  029%=      5-min Rain = 0
KVP1 122322Z 12009KT 07/M10 A3015 RMK A01 T00681101  RH  029%=      5-min Rain = 0
KVP1 122323Z 12010KT 07/M10 A3015 RMK A01 T00671101  RH  029%=      5-min Rain = 0
KVP1 122324Z 13008KT 07/M10 A3015 RMK A01 T00661101  RH  029%=      5-min Rain = 0
KVP1 122325Z 13007KT 07/M10 A3015 RMK A01 T00651102  RH  029%=      5-min Rain = 0
KVP1 122326Z 13008KT 06/M10 A3015 RMK A01 T00641102  RH  029%=      5-min Rain = 0
KVP1 122327Z 13008KT 06/M10 A3015 RMK A01 T00641102  RH  029%=      5-min Rain = 0
KVP1 122328Z 12008KT 06/M10 A3015 RMK A01 T00631103  RH  029%=      5-min Rain = 0
KVP1 122329Z 12008KT 06/M10 A3015 RMK A01 T00621103  RH  030%=      5-min Rain = 0
KVP1 122330Z 12009KT 06/M10 A3015 RMK A01 T00611103  RH  030%=      5-min Rain = 0
KVP1 122331Z 12009KT 06/M10 A3015 RMK A01 T00601103  RH  030%=      5-min Rain = 0
KVP1 122332Z 12009KT 06/M10 A3015 RMK A01 T00591103  RH  030%=      5-min Rain = 0
KVP1 122333Z 11009KT 06/M10 A3015 RMK A01 T00581104  RH  030%=      5-min Rain = 0
KVP1 122334Z 12008KT 06/M10 A3016 RMK A01 T00581103  RH  030%=      5-min Rain = 0
KVP1 122335Z 12008KT 06/M10 A3016 RMK A01 T00571104  RH  031%=      5-min Rain = 0
KVP1 122336Z 11008KT 06/M10 A3016 RMK A01 T00551104  RH  031%=      5-min Rain = 0
KVP1 122337Z 11007KT 05/M10 A3016 RMK A01 T00541104  RH  031%=      5-min Rain = 0
KVP1 122338Z 12007KT 05/M10 A3016 RMK A01 T00531104  RH  031%=      5-min Rain = 0
KVP1 122339Z 12008KT 05/M11 A3016 RMK A01 T00521105  RH  031%=      5-min Rain = 0
KVP1 122340Z 12008KT 05/M11 A3016 RMK A01 T00511105  RH  031%=      5-min Rain = 0
KVP1 122341Z 12008KT 05/M11 A3016 RMK A01 T00491105  RH  032%=      5-min Rain = 0
KVP1 122342Z 12008KT 05/M11 A3016 RMK A01 T00481105  RH  032%=      5-min Rain = 0
KVP1 122343Z 12007KT 05/M11 A3016 RMK A01 T00471106  RH  032%=      5-min Rain = 0
KVP1 122344Z 11007KT 05/M11 A3016 RMK A01 T00461106  RH  032%=      5-min Rain = 0
KVP1 122345Z 11008KT 04/M11 A3016 RMK A01 T00441107  RH  033%=      5-min Rain = 0
KVP1 122346Z 09007KT 04/M11 A3016 RMK A01 T00421107  RH  033%=      5-min Rain = 0
KVP1 122347Z 09008KT 04/M11 A3016 RMK A01 T00411108  RH  033%=      5-min Rain = 0
KVP1 122348Z 09010KT 04/M11 A3016 RMK A01 T00391108  RH  033%=      5-min Rain = 0
KVP1 122349Z 09010KT 04/M11 A3016 RMK A01 T00381109  RH  033%=      5-min Rain = 0
KVP1 122350Z 09010KT 04/M11 A3016 RMK A01 T00361111  RH  033%=      5-min Rain = 0
KVP1 122351Z 08010KT 03/M11 A3017 RMK A01 T00341112  RH  034%=      5-min Rain = 0
KVP1 122352Z 08009KT 03/M11 A3017 RMK A01 T00321112  RH  034%=      5-min Rain = 0
KVP1 122353Z 08009KT 03/M11 A3017 RMK A01 T00311112  RH  034%=      5-min Rain = 0
KVP1 122354Z 08008KT 03/M11 A3017 RMK A01 T00301113  RH  034%=      5-min Rain = 0
KVP1 122355Z 08009KT 03/M11 A3017 RMK A01 T00291114  RH  034%=      5-min Rain = 0
KVP1 122356Z 08008KT 03/M11 A3017 RMK A01 T00281114  RH  034%=      5-min Rain = 0
KVP1 122357Z 09009KT 03/M12 A3017 RMK A01 T00271115  RH  034%=      5-min Rain = 0
KVP1 122358Z 09010KT 03/M12 A3017 RMK A01 T00261115  RH  035%=      5-min Rain = 0
KVP1 122359Z 09009KT 03/M12 A3017 RMK A01 T00251115  RH  035%=      5-min Rain = 0
KVP1 130000Z 09010KT 03/M12 A3017 RMK A01 T00251116  RH  035%=      5-min Rain = 0
KVP1 130001Z 08009KT 02/M12 A3017 RMK A01 T00241116  RH  035%=      5-min Rain = 0
KVP1 130002Z 08009KT 02/M12 A3017 RMK A01 T00231117  RH  035%=      5-min Rain = 0
KVP1 130003Z 09010KT 02/M12 A3017 RMK A01 T00231117  RH  035%=      5-min Rain = 0
KVP1 130004Z 08009KT 02/M12 A3018 RMK A01 T00231117  RH  035%=      5-min Rain = 0
KVP1 130005Z 08010KT 02/M12 A3018 RMK A01 T00231117  RH  035%=      5-min Rain = 0
KVP1 130006Z 08009KT 02/M12 A3018 RMK A01 T00231117  RH  035%=      5-min Rain = 0
KVP1 130007Z 08009KT 02/M12 A3018 RMK A01 T00221117  RH  035%=      5-min Rain = 0
KVP1 130008Z 08010KT 02/M12 A3018 RMK A01 T00211118  RH  035%=      5-min Rain = 0
KVP1 130009Z 08009KT 02/M12 A3018 RMK A01 T00211118  RH  035%=      5-min Rain = 0
KVP1 130010Z 07009KT 02/M12 A3018 RMK A01 T00201118  RH  035%=      5-min Rain = 0
KVP1 130011Z 07009KT 02/M12 A3018 RMK A01 T00191119  RH  035%=      5-min Rain = 0
KVP1 130012Z 07010KT 02/M12 A3018 RMK A01 T00171119  RH  036%=      5-min Rain = 0
KVP1 130013Z 07010KT 02/M12 A3019 RMK A01 T00151120  RH  036%=      5-min Rain = 0
KVP1 130014Z 07011KT 01/M12 A3019 RMK A01 T00141119  RH  036%=      5-min Rain = 0
KVP1 130015Z 07010KT 01/M12 A3019 RMK A01 T00141119  RH  036%=      5-min Rain = 0
KVP1 130016Z 07010KT 01/M12 A3019 RMK A01 T00141119  RH  037%=      5-min Rain = 0
KVP1 130017Z 07010KT 01/M12 A3019 RMK A01 T00131119  RH  037%=      5-min Rain = 0
KVP1 130018Z 07010KT 01/M12 A3019 RMK A01 T00121119  RH  037%=      5-min Rain = 0
KVP1 130019Z 07010KT 01/M12 A302 RMK A01 T00121119  RH  037%=      5-min Rain = 0
KVP1 130020Z 07010KT 01/M12 A302 RMK A01 T00121119  RH  037%=      5-min Rain = 0
KVP1 130021Z 06010KT 01/M12 A302 RMK A01 T00101120  RH  037%=      5-min Rain = 0
KVP1 130022Z 07010KT 01/M12 A302 RMK A01 T00091120  RH  038%=      5-min Rain = 0
KVP1 130023Z 07010KT 01/M12 A302 RMK A01 T00081120  RH  038%=      5-min Rain = 0
KVP1 130024Z 07011KT 01/M12 A302 RMK A01 T00081120  RH  038%=      5-min Rain = 0
KVP1 130025Z 06011KT 01/M12 A302 RMK A01 T00081119  RH  038%=      5-min Rain = 0
KVP1 130026Z 06011KT 01/M12 A302 RMK A01 T00071120  RH  038%=      5-min Rain = 0
KVP1 130027Z 06012KT 01/M12 A3021 RMK A01 T00071120  RH  038%=      5-min Rain = 0
KVP1 130028Z 06011KT 01/M12 A3021 RMK A01 T00081119  RH  038%=      5-min Rain = 0
KVP1 130029Z 06012KT 01/M12 A3021 RMK A01 T00081119  RH  038%=      5-min Rain = 0
KVP1 130030Z 06012KT 01/M12 A3021 RMK A01 T00081120  RH  038%=      5-min Rain = 0
KVP1 130031Z 06012KT 01/M12 A3021 RMK A01 T00091120  RH  038%=      5-min Rain = 0
KVP1 130032Z 07012KT 01/M12 A3021 RMK A01 T00091120  RH  038%=      5-min Rain = 0
KVP1 130033Z 07011KT 01/M12 A3021 RMK A01 T00091120  RH  037%=      5-min Rain = 0
KVP1 130034Z 07011KT 01/M12 A3021 RMK A01 T00091121  RH  037%=      5-min Rain = 0
KVP1 130035Z 07013KT 01/M12 A3021 RMK A01 T00091121  RH  037%=      5-min Rain = 0
KVP1 130036Z 07012KT 01/M12 A3021 RMK A01 T00091121  RH  037%=      5-min Rain = 0
KVP1 130037Z 07012KT 01/M12 A3021 RMK A01 T00091121  RH  037%=      5-min Rain = 0
KVP1 130038Z 07013KT 01/M12 A3022 RMK A01 T00091121  RH  037%=      5-min Rain = 0
KVP1 130039Z 07013KT 01/M12 A3022 RMK A01 T00081122  RH  037%=      5-min Rain = 0
KVP1 130040Z 07013KT 01/M12 A3022 RMK A01 T00071122  RH  037%=      5-min Rain = 0
KVP1 130041Z 07012KT 01/M12 A3022 RMK A01 T00071122  RH  037%=      5-min Rain = 0
KVP1 130042Z 07012KT 01/M12 A3022 RMK A01 T00061122  RH  038%=      5-min Rain = 0
KVP1 130043Z 07013KT 01/M12 A3022 RMK A01 T00061123  RH  038%=      5-min Rain = 0
KVP1 130044Z 07012KT 01/M12 A3022 RMK A01 T00061123  RH  038%=      5-min Rain = 0
KVP1 130045Z 08013KT 01/M12 A3022 RMK A01 T00061123  RH  038%=      5-min Rain = 0
KVP1 130046Z 07012KT 01/M12 A3022 RMK A01 T00061123  RH  037%=      5-min Rain = 0
KVP1 130047Z 07012KT 01/M12 A3022 RMK A01 T00071123  RH  037%=      5-min Rain = 0
KVP1 130048Z 08011KT 01/M12 A3022 RMK A01 T00071123  RH  037%=      5-min Rain = 0
KVP1 130049Z 08011KT 01/M12 A3022 RMK A01 T00071124  RH  037%=      5-min Rain = 0
KVP1 130050Z 07011KT 01/M12 A3022 RMK A01 T00071124  RH  037%=      5-min Rain = 0
KVP1 130051Z 07013KT 01/M12 A3022 RMK A01 T00071124  RH  037%=      5-min Rain = 0
KVP1 130052Z 07011KT 01/M12 A3022 RMK A01 T00061124  RH  037%=      5-min Rain = 0
KVP1 130053Z 07011KT 01/M12 A3023 RMK A01 T00061124  RH  037%=      5-min Rain = 0
KVP1 130054Z 07011KT 01/M12 A3023 RMK A01 T00051124  RH  037%=      5-min Rain = 0
KVP1 130055Z 07010KT 01/M12 A3023 RMK A01 T00051124  RH  037%=      5-min Rain = 0
KVP1 130056Z 07011KT 01/M12 A3023 RMK A01 T00051124  RH  037%=      5-min Rain = 0
KVP1 130057Z 07012KT 01/M12 A3023 RMK A01 T00051124  RH  037%=      5-min Rain = 0
KVP1 130058Z 08012KT 01/M12 A3023 RMK A01 T00051124  RH  037%=      5-min Rain = 0
KVP1 130059Z 08011KT 01/M12 A3023 RMK A01 T00061123  RH  037%=      5-min Rain = 0
KVP1 130100Z 07012KT 01/M12 A3023 RMK A01 T00061124  RH  037%=      5-min Rain = 0
KVP1 130101Z 08013KT 01/M12 A3023 RMK A01 T00071124  RH  037%=      5-min Rain = 0
KVP1 130102Z 07012KT 01/M12 A3023 RMK A01 T00081123  RH  037%=      5-min Rain = 0
KVP1 130103Z 08012KT 01/M12 A3024 RMK A01 T00081123  RH  037%=      5-min Rain = 0
KVP1 130104Z 07014KT 01/M12 A3024 RMK A01 T00091123  RH  037%=      5-min Rain = 0
KVP1 130105Z 07012KT 01/M12 A3024 RMK A01 T00101123  RH  036%=      5-min Rain = 0
KVP1 130106Z 08012KT 01/M12 A3024 RMK A01 T00101123  RH  036%=      5-min Rain = 0
KVP1 130107Z 08012KT 01/M12 A3024 RMK A01 T00101123  RH  036%=      5-min Rain = 0
KVP1 130108Z 08011KT 01/M12 A3024 RMK A01 T00101123  RH  036%=      5-min Rain = 0
KVP1 130109Z 08012KT 01/M12 A3024 RMK A01 T00101123  RH  036%=      5-min Rain = 0
KVP1 130110Z 08012KT 01/M12 A3024 RMK A01 T00101124  RH  036%=      5-min Rain = 0
KVP1 130111Z 08013KT 01/M12 A3024 RMK A01 T00101124  RH  036%=      5-min Rain = 0
KVP1 130112Z 08012KT 01/M12 A3025 RMK A01 T00111124  RH  036%=      5-min Rain = 0
KVP1 130113Z 08013KT 01/M12 A3025 RMK A01 T00111124  RH  036%=      5-min Rain = 0
KVP1 130114Z 07012KT 01/M12 A3025 RMK A01 T00111124  RH  036%=      5-min Rain = 0
KVP1 130115Z 07013KT 01/M12 A3025 RMK A01 T00111124  RH  036%=      5-min Rain = 0
KVP1 130116Z 07013KT 01/M12 A3025 RMK A01 T00111124  RH  036%=      5-min Rain = 0
KVP1 130117Z 08014KT 01/M12 A3025 RMK A01 T00111123  RH  036%=      5-min Rain = 0
KVP1 130118Z 08013KT 01/M12 A3026 RMK A01 T00111124  RH  036%=      5-min Rain = 0
KVP1 130119Z 07012KT 01/M12 A3026 RMK A01 T00111124  RH  036%=      5-min Rain = 0
KVP1 130120Z 08012KT 01/M12 A3026 RMK A01 T00111124  RH  036%=      5-min Rain = 0
KVP1 130121Z 08014KT 01/M12 A3026 RMK A01 T00111124  RH  036%=      5-min Rain = 0
KVP1 130122Z 08012KT 01/M12 A3026 RMK A01 T00111124  RH  036%=      5-min Rain = 0
KVP1 130123Z 08012KT 01/M12 A3026 RMK A01 T00111124  RH  036%=      5-min Rain = 0
KVP1 130124Z 08012KT 01/M12 A3026 RMK A01 T00111124  RH  036%=      5-min Rain = 0
KVP1 130125Z 08013G18KT 01/M13 A3026 RMK A01 T00101125  RH  036%=      5-min Rain = 0
KVP1 130126Z 07013KT 01/M13 A3026 RMK A01 T00101125  RH  036%=      5-min Rain = 0
KVP1 130127Z 08015KT 01/M13 A3026 RMK A01 T00101125  RH  036%=      5-min Rain = 0
KVP1 130128Z 07016KT 01/M13 A3027 RMK A01 T00101126  RH  035%=      5-min Rain = 0
KVP1 130129Z 08014KT 01/M13 A3027 RMK A01 T00101127  RH  035%=      5-min Rain = 0
KVP1 130130Z 08013KT 01/M13 A3027 RMK A01 T00101126  RH  035%=      5-min Rain = 0
KVP1 130131Z 08014KT 01/M13 A3027 RMK A01 T00101126  RH  035%=      5-min Rain = 0
KVP1 130132Z 08013G18KT 01/M13 A3027 RMK A01 T00101127  RH  035%=      5-min Rain = 0
KVP1 130133Z 08015KT 01/M13 A3027 RMK A01 T00101127  RH  035%=      5-min Rain = 0
KVP1 130134Z 08014KT 01/M13 A3027 RMK A01 T00101128  RH  035%=      5-min Rain = 0
KVP1 130135Z 08014KT 01/M13 A3027 RMK A01 T00101128  RH  035%=      5-min Rain = 0
KVP1 130136Z 08014KT 01/M13 A3027 RMK A01 T00101128  RH  035%=      5-min Rain = 0
KVP1 130137Z 08014KT 01/M13 A3027 RMK A01 T00101128  RH  035%=      5-min Rain = 0
KVP1 130138Z 08013KT 01/M13 A3027 RMK A01 T00101129  RH  035%=      5-min Rain = 0
KVP1 130139Z 08014KT 01/M13 A3027 RMK A01 T00101129  RH  035%=      5-min Rain = 0
KVP1 130140Z 08013KT 01/M13 A3027 RMK A01 T00091129  RH  035%=      5-min Rain = 0
KVP1 130141Z 08014KT 01/M13 A3027 RMK A01 T00091129  RH  035%=      5-min Rain = 0
KVP1 130142Z 08015KT 01/M13 A3028 RMK A01 T00091129  RH  035%=      5-min Rain = 0
KVP1 130143Z 08014KT 01/M13 A3028 RMK A01 T00081129  RH  035%=      5-min Rain = 0
KVP1 130144Z 08014KT 01/M13 A3028 RMK A01 T00081129  RH  035%=      5-min Rain = 0
KVP1 130145Z 08011KT 01/M13 A3028 RMK A01 T00081130  RH  035%=      5-min Rain = 0
KVP1 130146Z 08011KT 01/M13 A3028 RMK A01 T00071129  RH  035%=      5-min Rain = 0
KVP1 130147Z 08011KT 01/M13 A3028 RMK A01 T00071129  RH  035%=      5-min Rain = 0
KVP1 130148Z 07011KT 01/M13 A3028 RMK A01 T00061129  RH  036%=      5-min Rain = 0
KVP1 130149Z 07013KT 01/M13 A3028 RMK A01 T00051129  RH  036%=      5-min Rain = 0
KVP1 130150Z 07013KT 00/M13 A3028 RMK A01 T00031130  RH  036%=      5-min Rain = 0
KVP1 130151Z 07013KT 00/M13 A3028 RMK A01 T00031130  RH  036%=      5-min Rain = 0
KVP1 130152Z 07013KT 00/M13 A3028 RMK A01 T00021130  RH  036%=      5-min Rain = 0
KVP1 130153Z 08015KT 00/M13 A3028 RMK A01 T00011130  RH  036%=      5-min Rain = 0
KVP1 130154Z 08013KT 00/M13 A3028 RMK A01 T00011130  RH  036%=      5-min Rain = 0
KVP1 130155Z 08013KT 00/M13 A3028 RMK A01 T00011131  RH  036%=      5-min Rain = 0
KVP1 130156Z 09014KT 00/13 A3028 RMK A01 T00000-131  RH  036%=      5-min Rain = 0
KVP1 130157Z 08015G20KT 00/13 A3028 RMK A01 T00-00-132  RH  036%=      5-min Rain = 0
KVP1 130158Z 08017KT M00/M13 A3028 RMK A01 T10011133  RH  036%=      5-min Rain = 0
KVP1 130159Z 08016KT M00/M13 A3028 RMK A01 T10011134  RH  036%=      5-min Rain = 0
KVP1 130200Z 08016KT M00/M13 A3029 RMK A01 T10011134  RH  036%=      5-min Rain = 0
KVP1 130201Z 08014KT M00/M13 A3029 RMK A01 T10021134  RH  036%=      5-min Rain = 0
KVP1 130202Z 09014G19KT M00/M13 A3029 RMK A01 T10021134  RH  036%=      5-min Rain = 0
KVP1 130203Z 08015KT M00/M13 A3029 RMK A01 T10021134  RH  036%=      5-min Rain = 0
KVP1 130204Z 09016KT M00/M14 A3028 RMK A01 T10021135  RH  036%=      5-min Rain = 0
KVP1 130205Z 09013KT M00/M14 A3029 RMK A01 T10031135  RH  036%=      5-min Rain = 0
KVP1 130206Z 09014KT M00/M14 A3029 RMK A01 T10031135  RH  036%=      5-min Rain = 0
KVP1 130207Z 09015KT M00/M14 A3029 RMK A01 T10041135  RH  036%=      5-min Rain = 0
KVP1 130208Z 09015KT M00/M14 A3029 RMK A01 T10031135  RH  036%=      5-min Rain = 0
KVP1 130209Z 09012KT M00/M14 A3029 RMK A01 T10041135  RH  036%=      5-min Rain = 0
KVP1 130210Z 09012KT M00/M14 A3029 RMK A01 T10041135  RH  037%=      5-min Rain = 0
KVP1 130211Z 09014KT M01/M14 A3029 RMK A01 T10051136  RH  037%=      5-min Rain = 0
KVP1 130212Z 09014KT M01/M14 A3029 RMK A01 T10051136  RH  037%=      5-min Rain = 0
KVP1 130213Z 09014KT M01/M14 A3029 RMK A01 T10051135  RH  037%=      5-min Rain = 0
KVP1 130214Z 09013G18KT M01/M14 A3029 RMK A01 T10061136  RH  037%=      5-min Rain = 0
KVP1 130215Z 09016KT M01/M14 A3029 RMK A01 T10061136  RH  037%=      5-min Rain = 0
KVP1 130216Z 09016KT M01/M14 A3029 RMK A01 T10071137  RH  037%=      5-min Rain = 0
KVP1 130217Z 09014KT M01/M14 A303 RMK A01 T10071137  RH  037%=      5-min Rain = 0
KVP1 130218Z 09013KT M01/M14 A303 RMK A01 T10071137  RH  037%=      5-min Rain = 0
KVP1 130219Z 09013KT M01/M14 A303 RMK A01 T10081137  RH  037%=      5-min Rain = 0
KVP1 130220Z 08012KT M01/M14 A303 RMK A01 T10091137  RH  037%=      5-min Rain = 0
KVP1 130221Z 08013KT M01/M14 A303 RMK A01 T10091137  RH  037%=      5-min Rain = 0
KVP1 130222Z 09013KT M01/M14 A303 RMK A01 T10101138  RH  037%=      5-min Rain = 0
KVP1 130223Z 09014KT M01/M14 A303 RMK A01 T10101138  RH  037%=      5-min Rain = 0
KVP1 130224Z 08013KT M01/M14 A303 RMK A01 T10101138  RH  037%=      5-min Rain = 0
KVP1 130225Z 09014KT M01/M14 A303 RMK A01 T10101138  RH  037%=      5-min Rain = 0
KVP1 130226Z 09012KT M01/M14 A303 RMK A01 T10111138  RH  037%=      5-min Rain = 0
KVP1 130227Z 09012KT M01/M14 A3031 RMK A01 T10111139  RH  037%=      5-min Rain = 0
KVP1 130228Z 09011KT M01/M14 A3031 RMK A01 T10121139  RH  037%=      5-min Rain = 0
KVP1 130229Z 09012KT M01/M14 A3031 RMK A01 T10121139  RH  038%=      5-min Rain = 0
KVP1 130230Z 09011KT M01/M14 A3031 RMK A01 T10131139  RH  038%=      5-min Rain = 0
KVP1 130231Z 09012KT M01/M14 A3031 RMK A01 T10131139  RH  038%=      5-min Rain = 0
KVP1 130232Z 09012KT M01/M14 A3031 RMK A01 T10131139  RH  038%=      5-min Rain = 0
KVP1 130233Z 09012KT M01/M14 A3031 RMK A01 T10131139  RH  038%=      5-min Rain = 0
KVP1 130234Z 09011KT M01/M14 A3031 RMK A01 T10141139  RH  038%=      5-min Rain = 0
KVP1 130235Z 09011KT M02/M14 A3031 RMK A01 T10151139  RH  038%=      5-min Rain = 0
KVP1 130236Z 08011KT M02/M14 A3031 RMK A01 T10151139  RH  038%=      5-min Rain = 0
KVP1 130237Z 09011KT M02/M14 A3031 RMK A01 T10151139  RH  038%=      5-min Rain = 0
KVP1 130238Z 09011KT M02/M14 A3031 RMK A01 T10151139  RH  038%=      5-min Rain = 0
KVP1 130239Z 09013KT M02/M14 A3032 RMK A01 T10161139  RH  038%=      5-min Rain = 0
KVP1 130240Z 08012KT M02/M14 A3032 RMK A01 T10161139  RH  038%=      5-min Rain = 0
KVP1 130241Z 09012KT M02/M14 A3032 RMK A01 T10161140  RH  038%=      5-min Rain = 0
KVP1 130242Z 08012KT M02/M14 A3032 RMK A01 T10161140  RH  038%=      5-min Rain = 0
KVP1 130243Z 09012KT M02/M14 A3032 RMK A01 T10161140  RH  038%=      5-min Rain = 0
KVP1 130244Z 09013KT M02/M14 A3032 RMK A01 T10161140  RH  038%=      5-min Rain = 0
KVP1 130245Z 08013KT M02/M14 A3032 RMK A01 T10161140  RH  038%=      5-min Rain = 0
KVP1 130246Z 08013KT M02/M14 A3033 RMK A01 T10161140  RH  038%=      5-min Rain = 0
KVP1 130247Z 08013KT M02/M14 A3033 RMK A01 T10161141  RH  038%=      5-min Rain = 0
KVP1 130248Z 08012KT M02/M14 A3033 RMK A01 T10171141  RH  038%=      5-min Rain = 0
KVP1 130249Z 08012KT M02/M14 A3033 RMK A01 T10171141  RH  038%=      5-min Rain = 0
KVP1 130250Z 07010KT M02/M14 A3033 RMK A01 T10171141  RH  038%=      5-min Rain = 0
KVP1 130251Z 07010KT M02/M14 A3033 RMK A01 T10181142  RH  038%=      5-min Rain = 0
KVP1 130252Z 07010KT M02/M14 A3033 RMK A01 T10191142  RH  039%=      5-min Rain = 0
KVP1 130253Z 07011KT M02/M14 A3033 RMK A01 T10211142  RH  039%=      5-min Rain = 0
KVP1 130254Z 08011KT M02/M14 A3034 RMK A01 T10211142  RH  039%=      5-min Rain = 0
KVP1 130255Z 08010KT M02/M14 A3034 RMK A01 T10221142  RH  039%=      5-min Rain = 0
KVP1 130256Z 08010KT M02/M14 A3034 RMK A01 T10221142  RH  040%=      5-min Rain = 0
KVP1 130257Z 08010KT M02/M14 A3034 RMK A01 T10221142  RH  040%=      5-min Rain = 0
KVP1 130258Z 08010KT M02/M14 A3034 RMK A01 T10221141  RH  040%=      5-min Rain = 0
KVP1 130259Z 08011KT M02/M14 A3034 RMK A01 T10231141  RH  040%=      5-min Rain = 0
KVP1 130300Z 09010KT M02/M14 A3034 RMK A01 T10231142  RH  040%=      5-min Rain = 0
KVP1 130301Z 08011KT M02/M14 A3034 RMK A01 T10221141  RH  039%=      5-min Rain = 0
KVP1 130302Z 08010KT M02/M14 A3034 RMK A01 T10221142  RH  039%=      5-min Rain = 0
KVP1 130303Z 09012KT M02/M14 A3034 RMK A01 T10221142  RH  039%=      5-min Rain = 0
KVP1 130304Z 08011KT M02/M14 A3034 RMK A01 T10221142  RH  039%=      5-min Rain = 0
KVP1 130305Z 08010KT M02/M14 A3034 RMK A01 T10221142  RH  039%=      5-min Rain = 0
KVP1 130306Z 08010KT M02/M14 A3034 RMK A01 T10221142  RH  039%=      5-min Rain = 0
KVP1 130307Z 08010KT M02/M14 A3035 RMK A01 T10221142  RH  039%=      5-min Rain = 0
KVP1 130308Z 08012KT M02/M14 A3035 RMK A01 T10231142  RH  039%=      5-min Rain = 0
KVP1 130309Z 08010KT M02/M14 A3035 RMK A01 T10231142  RH  040%=      5-min Rain = 0
KVP1 130310Z 07009KT M02/M14 A3035 RMK A01 T10231142  RH  040%=      5-min Rain = 0
KVP1 130311Z 08010KT M03/M14 A3035 RMK A01 T10251143  RH  040%=      5-min Rain = 0
KVP1 130312Z 08011KT M03/M14 A3035 RMK A01 T10261143  RH  040%=      5-min Rain = 0
KVP1 130313Z 07009KT M03/M14 A3035 RMK A01 T10261142  RH  040%=      5-min Rain = 0
KVP1 130314Z 07009KT M03/M14 A3036 RMK A01 T10271143  RH  041%=      5-min Rain = 0
KVP1 130315Z 07009KT M03/M14 A3036 RMK A01 T10281143  RH  041%=      5-min Rain = 0
KVP1 130316Z 07009KT M03/M14 A3036 RMK A01 T10281142  RH  041%=      5-min Rain = 0
KVP1 130317Z 07010KT M03/M14 A3036 RMK A01 T10291143  RH  041%=      5-min Rain = 0
KVP1 130318Z 07009KT M03/M14 A3036 RMK A01 T10311143  RH  042%=      5-min Rain = 0
KVP1 130319Z 08009KT M03/M14 A3036 RMK A01 T10321143  RH  042%=      5-min Rain = 0
KVP1 130320Z 07009KT M03/M14 A3036 RMK A01 T10321143  RH  042%=      5-min Rain = 0
KVP1 130321Z 07009KT M03/M14 A3036 RMK A01 T10321142  RH  042%=      5-min Rain = 0
KVP1 130322Z 08008KT M03/M14 A3036 RMK A01 T10321142  RH  042%=      5-min Rain = 0
KVP1 130323Z 08007KT M03/M14 A3036 RMK A01 T10321143  RH  042%=      5-min Rain = 0
KVP1 130324Z 08007KT M03/M14 A3036 RMK A01 T10331143  RH  042%=      5-min Rain = 0
KVP1 130325Z 08007KT M03/M14 A3036 RMK A01 T10331142  RH  042%=      5-min Rain = 0
KVP1 130326Z 07007KT M03/M14 A3036 RMK A01 T10331143  RH  042%=      5-min Rain = 0
KVP1 130327Z 08008KT M03/M14 A3036 RMK A01 T10331143  RH  043%=      5-min Rain = 0
KVP1 130328Z 08008KT M03/M14 A3036 RMK A01 T10331143  RH  043%=      5-min Rain = 0
KVP1 130329Z 08008KT M03/M14 A3036 RMK A01 T10341143  RH  043%=      5-min Rain = 0
KVP1 130330Z 08008KT M03/M14 A3036 RMK A01 T10341143  RH  043%=      5-min Rain = 0
KVP1 130331Z 07007KT M04/M14 A3036 RMK A01 T10351143  RH  043%=      5-min Rain = 0
KVP1 130332Z 08007KT M04/M14 A3036 RMK A01 T10361143  RH  043%=      5-min Rain = 0
KVP1 130333Z 09007KT M04/M14 A3036 RMK A01 T10361143  RH  043%=      5-min Rain = 0
KVP1 130334Z 09007KT M04/M14 A3036 RMK A01 T10361143  RH  043%=      5-min Rain = 0
KVP1 130335Z 09006KT M04/M14 A3036 RMK A01 T10361143  RH  043%=      5-min Rain = 0
KVP1 130336Z 09006KT M04/M14 A3036 RMK A01 T10361143  RH  043%=      5-min Rain = 0
KVP1 130337Z 09007KT M04/M14 A3036 RMK A01 T10361143  RH  043%=      5-min Rain = 0
KVP1 130338Z 09006KT M04/M14 A3037 RMK A01 T10361143  RH  043%=      5-min Rain = 0
KVP1 130339Z 09006KT M04/M14 A3036 RMK A01 T10371144  RH  043%=      5-min Rain = 0
KVP1 130340Z 10006KT M04/M14 A3036 RMK A01 T10371143  RH  043%=      5-min Rain = 0
KVP1 130341Z 09006KT M04/M14 A3036 RMK A01 T10371144  RH  043%=      5-min Rain = 0
KVP1 130342Z 09006KT M04/M14 A3037 RMK A01 T10381144  RH  044%=      5-min Rain = 0
KVP1 130343Z 09007KT M04/M15 A3037 RMK A01 T10391145  RH  044%=      5-min Rain = 0
KVP1 130344Z 09007KT M04/M14 A3036 RMK A01 T10391144  RH  044%=      5-min Rain = 0
KVP1 130345Z 09007KT M04/M14 A3036 RMK A01 T10391144  RH  044%=      5-min Rain = 0
KVP1 130346Z 09008KT M04/M14 A3036 RMK A01 T10401144  RH  044%=      5-min Rain = 0
KVP1 130347Z 09008KT M04/M14 A3036 RMK A01 T10401144  RH  044%=      5-min Rain = 0
KVP1 130348Z 09008KT M04/M14 A3036 RMK A01 T10401144  RH  044%=      5-min Rain = 0
KVP1 130349Z 10007KT M04/M14 A3036 RMK A01 T10391144  RH  044%=      5-min Rain = 0
KVP1 130350Z 09006KT M04/M14 A3036 RMK A01 T10401144  RH  044%=      5-min Rain = 0
KVP1 130351Z 09006KT M04/M14 A3036 RMK A01 T10401144  RH  044%=      5-min Rain = 0
KVP1 130352Z 10006KT M04/M14 A3036 RMK A01 T10401144  RH  044%=      5-min Rain = 0
KVP1 130353Z 10005KT M04/M14 A3036 RMK A01 T10401143  RH  044%=      5-min Rain = 0
KVP1 130354Z 10005KT M04/M14 A3037 RMK A01 T10401144  RH  044%=      5-min Rain = 0
KVP1 130355Z 08005KT M04/M14 A3037 RMK A01 T10411144  RH  044%=      5-min Rain = 0
KVP1 130356Z 08005KT M04/M15 A3037 RMK A01 T10411145  RH  044%=      5-min Rain = 0
KVP1 130357Z 09004KT M04/M14 A3037 RMK A01 T10411144  RH  045%=      5-min Rain = 0
KVP1 130358Z 09004KT M04/M15 A3037 RMK A01 T10421145  RH  045%=      5-min Rain = 0
KVP1 130359Z 09004KT M04/M15 A3037 RMK A01 T10431145  RH  045%=      5-min Rain = 0
KVP1 130400Z 08004KT M04/M15 A3037 RMK A01 T10431145  RH  045%=      5-min Rain = 0
KVP1 130401Z 08004KT M04/M15 A3037 RMK A01 T10431145  RH  045%=      5-min Rain = 0
KVP1 130402Z 08004KT M04/M15 A3038 RMK A01 T10441146  RH  045%=      5-min Rain = 0
KVP1 130403Z 08004KT M05/M15 A3038 RMK A01 T10451146  RH  045%=      5-min Rain = 0
KVP1 130404Z 08004KT M05/M15 A3038 RMK A01 T10451145  RH  045%=      5-min Rain = 0
KVP1 130405Z 08004KT M05/M15 A3038 RMK A01 T10461146  RH  045%=      5-min Rain = 0
KVP1 130406Z 07004KT M05/M15 A3038 RMK A01 T10471147  RH  045%=      5-min Rain = 0
KVP1 130407Z 07004KT M05/M15 A3038 RMK A01 T10481147  RH  046%=      5-min Rain = 0
KVP1 130408Z 06004KT M05/M15 A3038 RMK A01 T10491146  RH  046%=      5-min Rain = 0
KVP1 130409Z 06005KT M05/M15 A3038 RMK A01 T10491146  RH  047%=      5-min Rain = 0
KVP1 130410Z 07004KT M05/M15 A3038 RMK A01 T10501145  RH  047%=      5-min Rain = 0
KVP1 130411Z 08005KT M05/M15 A3038 RMK A01 T10501145  RH  047%=      5-min Rain = 0
KVP1 130412Z 08005KT M05/M15 A3038 RMK A01 T10511146  RH  047%=      5-min Rain = 0
KVP1 130413Z 08006KT M05/M15 A3038 RMK A01 T10511145  RH  048%=      5-min Rain = 0
KVP1 130414Z 09006KT M05/M15 A3038 RMK A01 T10521145  RH  048%=      5-min Rain = 0
KVP1 130415Z 09006KT M05/M15 A3038 RMK A01 T10531146  RH  048%=      5-min Rain = 0
KVP1 130416Z 08006KT M05/M15 A3038 RMK A01 T10541146  RH  048%=      5-min Rain = 0
KVP1 130417Z 08005KT M06/M15 A3038 RMK A01 T10551146  RH  048%=      5-min Rain = 0
KVP1 130418Z 08005KT M06/M15 A3038 RMK A01 T10561147  RH  049%=      5-min Rain = 0
KVP1 130419Z 08005KT M06/M15 A3038 RMK A01 T10581148  RH  049%=      5-min Rain = 0
KVP1 130420Z 08006KT M06/M15 A3038 RMK A01 T10591148  RH  050%=      5-min Rain = 0
KVP1 130421Z 08006KT M06/M15 A3038 RMK A01 T10611148  RH  050%=      5-min Rain = 0
KVP1 130422Z 08006KT M06/M15 A3039 RMK A01 T10621149  RH  050%=      5-min Rain = 0
KVP1 130423Z 07006KT M06/M15 A3039 RMK A01 T10631149  RH  051%=      5-min Rain = 0
KVP1 130424Z 07006KT M06/M15 A3039 RMK A01 T10631148  RH  051%=      5-min Rain = 0
KVP1 130425Z 08006KT M06/M15 A3039 RMK A01 T10621146  RH  051%=      5-min Rain = 0
KVP1 130426Z 07005KT M06/M15 A3039 RMK A01 T10621146  RH  051%=      5-min Rain = 0
KVP1 130427Z 06006KT M06/M15 A3039 RMK A01 T10621147  RH  051%=      5-min Rain = 0
KVP1 130428Z 06006KT M06/M15 A3039 RMK A01 T10611146  RH  051%=      5-min Rain = 0
KVP1 130429Z 07006KT M06/M15 A3039 RMK A01 T10601145  RH  051%=      5-min Rain = 0
KVP1 130430Z 06005KT M06/M15 A3039 RMK A01 T10591145  RH  051%=      5-min Rain = 0
KVP1 130431Z 05005KT M06/M15 A3039 RMK A01 T10581145  RH  050%=      5-min Rain = 0
KVP1 130432Z 05006KT M06/M15 A304 RMK A01 T10581145  RH  050%=      5-min Rain = 0
KVP1 130433Z 06006KT M06/M15 A304 RMK A01 T10581145  RH  050%=      5-min Rain = 0
KVP1 130434Z 05006KT M06/M15 A304 RMK A01 T10591146  RH  050%=      5-min Rain = 0
KVP1 130435Z 05006KT M06/M15 A304 RMK A01 T10601147  RH  050%=      5-min Rain = 0
KVP1 130436Z 05006KT M06/M15 A304 RMK A01 T10611148  RH  050%=      5-min Rain = 0
KVP1 130437Z 05006KT M06/M15 A304 RMK A01 T10621148  RH  051%=      5-min Rain = 0
KVP1 130438Z 04006KT M06/M15 A304 RMK A01 T10631148  RH  051%=      5-min Rain = 0
KVP1 130439Z 05006KT M06/M15 A304 RMK A01 T10641149  RH  051%=      5-min Rain = 0
KVP1 130440Z 05006KT M07/M15 A304 RMK A01 T10651148  RH  052%=      5-min Rain = 0
KVP1 130441Z 05005KT M06/M15 A304 RMK A01 T10641147  RH  052%=      5-min Rain = 0
KVP1 130442Z 05006KT M07/M15 A304 RMK A01 T10651148  RH  052%=      5-min Rain = 0
KVP1 130443Z 05006KT M07/M15 A304 RMK A01 T10651148  RH  052%=      5-min Rain = 0
KVP1 130444Z 05006KT M07/M15 A304 RMK A01 T10651148  RH  052%=      5-min Rain = 0
KVP1 130445Z 05006KT M06/M15 A304 RMK A01 T10641147  RH  052%=      5-min Rain = 0
KVP1 130446Z 06006KT M06/M15 A304 RMK A01 T10631147  RH  051%=      5-min Rain = 0
KVP1 130447Z 06006KT M06/M15 A304 RMK A01 T10631147  RH  051%=      5-min Rain = 0
KVP1 130448Z 04006KT M06/M15 A3041 RMK A01 T10621146  RH  051%=      5-min Rain = 0
KVP1 130449Z 05006KT M06/M15 A304 RMK A01 T10611147  RH  051%=      5-min Rain = 0
KVP1 130450Z 05005KT M06/M15 A304 RMK A01 T10621147  RH  051%=      5-min Rain = 0
KVP1 130451Z 06005KT M06/M15 A304 RMK A01 T10631148  RH  051%=      5-min Rain = 0
KVP1 130452Z 06005KT M06/M15 A304 RMK A01 T10641149  RH  051%=      5-min Rain = 0
KVP1 130453Z 06005KT M06/M15 A304 RMK A01 T10641148  RH  051%=      5-min Rain = 0
KVP1 130454Z 07006KT M06/M15 A304 RMK A01 T10641148  RH  051%=      5-min Rain = 0
KVP1 130455Z 08007KT M06/M15 A304 RMK A01 T10631147  RH  051%=      5-min Rain = 0
KVP1 130456Z 07007KT M06/M15 A304 RMK A01 T10631148  RH  051%=      5-min Rain = 0
KVP1 130457Z 08007KT M07/M15 A304 RMK A01 T10651149  RH  051%=      5-min Rain = 0
KVP1 130458Z 09007KT M07/M15 A304 RMK A01 T10661150  RH  051%=      5-min Rain = 0
KVP1 130459Z 07007KT M07/M15 A304 RMK A01 T10681151  RH  052%=      5-min Rain = 0
KVP1 130500Z 07007KT M07/M15 A304 RMK A01 T10701151  RH  052%=      5-min Rain = 0
KVP1 130501Z 08006KT M07/M15 A304 RMK A01 T10701150  RH  053%=      5-min Rain = 0
KVP1 130502Z 08006KT M07/M15 A304 RMK A01 T10691148  RH  053%=      5-min Rain = 0
KVP1 130503Z 06005KT M07/M15 A304 RMK A01 T10691148  RH  053%=      5-min Rain = 0
KVP1 130504Z 06004KT M07/M15 A304 RMK A01 T10681148  RH  053%=      5-min Rain = 0
KVP1 130505Z 05003KT M07/M15 A304 RMK A01 T10671147  RH  053%=      5-min Rain = 0
KVP1 130506Z 04003KT M07/M15 A304 RMK A01 T10661146  RH  053%=      5-min Rain = 0
KVP1 130507Z 03003KT M06/M15 A304 RMK A01 T10641145  RH  053%=      5-min Rain = 0
KVP1 130508Z 05002KT M06/M15 A304 RMK A01 T10631145  RH  052%=      5-min Rain = 0
KVP1 130509Z 04002KT M06/M15 A304 RMK A01 T10621146  RH  052%=      5-min Rain = 0
KVP1 130510Z 03002KT M06/M15 A3041 RMK A01 T10621146  RH  051%=      5-min Rain = 0
KVP1 130511Z 03001KT M06/M15 A304 RMK A01 T10641148  RH  051%=      5-min Rain = 0
KVP1 130512Z 06001KT M07/M15 A304 RMK A01 T10671150  RH  052%=      5-min Rain = 0
KVP1 130513Z 08001KT M07/M15 A304 RMK A01 T10691151  RH  052%=      5-min Rain = 0
KVP1 130514Z 07001KT M07/M15 A304 RMK A01 T10721151  RH  053%=      5-min Rain = 0
KVP1 130515Z 07001KT M07/M15 A304 RMK A01 T10731152  RH  054%=      5-min Rain = 0
KVP1 130516Z 07000KT M08/M15 A304 RMK A01 T10751151  RH  054%=      5-min Rain = 0
KVP1 130517Z 00000KT M08/M15 A304 RMK A01 T10761152  RH  055%=      5-min Rain = 0
KVP1 130518Z 00000KT M08/M15 A304 RMK A01 T10781152  RH  055%=      5-min Rain = 0
KVP1 130519Z 00000KT M08/M15 A304 RMK A01 T10811153  RH  056%=      5-min Rain = 0
KVP1 130520Z 00000KT M08/M16 A304 RMK A01 T10831155  RH  056%=      5-min Rain = 0
KVP1 130521Z 00000KT M09/M16 A304 RMK A01 T10861155  RH  057%=      5-min Rain = 0
KVP1 130522Z 00000KT M09/M16 A304 RMK A01 T10881156  RH  058%=      5-min Rain = 0
KVP1 130523Z 00000KT M09/M16 A304 RMK A01 T10901155  RH  059%=      5-min Rain = 0
KVP1 130524Z 12001KT M09/M15 A304 RMK A01 T10901154  RH  060%=      5-min Rain = 0
KVP1 130525Z 12001KT M09/M15 A304 RMK A01 T10901153  RH  060%=      5-min Rain = 0
KVP1 130526Z 13001KT M09/M15 A304 RMK A01 T10901153  RH  061%=      5-min Rain = 0
KVP1 130527Z 15001KT M09/M15 A304 RMK A01 T10901152  RH  060%=      5-min Rain = 0
KVP1 130528Z 15001KT M09/M15 A304 RMK A01 T10881152  RH  060%=      5-min Rain = 0
KVP1 130529Z 16001KT M09/M15 A304 RMK A01 T10871153  RH  059%=      5-min Rain = 0
KVP1 130530Z 17002KT M09/M15 A304 RMK A01 T10861153  RH  059%=      5-min Rain = 0
KVP1 130531Z 17002KT M09/M15 A3041 RMK A01 T10851153  RH  058%=      5-min Rain = 0
KVP1 130532Z 17001KT M08/M15 A3041 RMK A01 T10841153  RH  058%=      5-min Rain = 0
KVP1 130533Z 17001KT M09/M15 A3041 RMK A01 T10851154  RH  057%=      5-min Rain = 0
KVP1 130534Z 18001KT M09/M16 A3041 RMK A01 T10861155  RH  057%=      5-min Rain = 0
KVP1 130535Z 20001KT M09/M16 A3041 RMK A01 T10871156  RH  057%=      5-min Rain = 0
KVP1 130536Z 20001KT M09/M16 A3041 RMK A01 T10881156  RH  058%=      5-min Rain = 0
KVP1 130537Z 20001KT M09/M16 A304 RMK A01 T10891156  RH  058%=      5-min Rain = 0
KVP1 130538Z 20002KT M09/M16 A304 RMK A01 T10901156  RH  059%=      5-min Rain = 0
KVP1 130539Z 20002KT M09/M16 A304 RMK A01 T10901155  RH  059%=      5-min Rain = 0
KVP1 130540Z 20002KT M09/M16 A304 RMK A01 T10901155  RH  059%=      5-min Rain = 0
KVP1 130541Z 20002KT M09/M16 A304 RMK A01 T10901155  RH  059%=      5-min Rain = 0
KVP1 130542Z 21002KT M09/M16 A304 RMK A01 T10901155  RH  059%=      5-min Rain = 0
KVP1 130543Z 21003KT M09/M16 A304 RMK A01 T10911155  RH  059%=      5-min Rain = 0
KVP1 130544Z 22003KT M09/M16 A304 RMK A01 T10911156  RH  059%=      5-min Rain = 0
KVP1 130545Z 22003KT M09/M16 A304 RMK A01 T10911156  RH  059%=      5-min Rain = 0
KVP1 130546Z 23003KT M09/M16 A304 RMK A01 T10911156  RH  059%=      5-min Rain = 0
KVP1 130547Z 23004KT M09/M16 A304 RMK A01 T10911156  RH  059%=      5-min Rain = 0
KVP1 130548Z 23004KT M09/M16 A304 RMK A01 T10911156  RH  059%=      5-min Rain = 0
KVP1 130549Z 24004KT M09/M16 A304 RMK A01 T10911155  RH  059%=      5-min Rain = 0
KVP1 130550Z 24004KT M09/M16 A304 RMK A01 T10911155  RH  060%=      5-min Rain = 0
KVP1 130551Z 24004KT M09/M15 A304 RMK A01 T10911154  RH  060%=      5-min Rain = 0
KVP1 130552Z 24004KT M09/M16 A304 RMK A01 T10911155  RH  060%=      5-min Rain = 0
KVP1 130553Z 24003KT M09/M16 A304 RMK A01 T10911155  RH  060%=      5-min Rain = 0
KVP1 130554Z 23003KT M09/M16 A304 RMK A01 T10911155  RH  060%=      5-min Rain = 0
KVP1 130555Z 22003KT M09/M15 A3041 RMK A01 T10901154  RH  060%=      5-min Rain = 0
KVP1 130556Z 22003KT M09/M16 A304 RMK A01 T10901155  RH  060%=      5-min Rain = 0
KVP1 130557Z 22003KT M09/M15 A3041 RMK A01 T10901154  RH  060%=      5-min Rain = 0
KVP1 130558Z 22003KT M09/M15 A3041 RMK A01 T10891153  RH  060%=      5-min Rain = 0
KVP1 130559Z 23003KT M09/M15 A3041 RMK A01 T10891153  RH  060%=      5-min Rain = 0

Page generated in 0.1248 seconds.